Wetterdaten: Samstag, 29.06.2013
Datum Zeit Temp. Aussen +5cm Feuchte Auss Luftdruck Regen Sonnenschein Regendauer UV Solar Windben
29.06.2013 00:00 14,0 C 12,3 C 94 % 1017,2 hPa 0,0 l/m 0 min 2 min 0,0 UV-I 0 W/m 7,7 km/h (2 Bft)
29.06.2013 00:02 14,0 C 12,3 C 94 % 1017,1 hPa 0,0 l/m 0 min 2 min 0,0 UV-I 0 W/m 0,0 km/h (0 Bft)
29.06.2013 00:05 14,0 C 12,3 C 94 % 1017,1 hPa 0,2 l/m 0 min 2 min 0,0 UV-I 0 W/m 0,0 km/h (0 Bft)
29.06.2013 00:06 14,0 C 12,3 C 95 % 1017,1 hPa 0,0 l/m 0 min 1 min 0,0 UV-I 0 W/m 0,0 km/h (0 Bft)
29.06.2013 00:08 14,0 C 12,3 C 95 % 1017,1 hPa 0,0 l/m 0 min 2 min 0,0 UV-I 0 W/m 5,1 km/h (1 Bft)
29.06.2013 00:10 14,0 C 12,3 C 95 % 1017,1 hPa 0,0 l/m 0 min 2 min 0,0 UV-I 0 W/m 10,3 km/h (2 Bft)
29.06.2013 00:12 14,0 C 12,3 C 95 % 1017,0 hPa 0,0 l/m 0 min 2 min 0,0 UV-I 0 W/m 5,1 km/h (1 Bft)
29.06.2013 00:14 14,0 C 12,3 C 95 % 1017,1 hPa 0,2 l/m 0 min 2 min 0,0 UV-I 0 W/m 5,1 km/h (1 Bft)
29.06.2013 00:16 13,9 C 12,3 C 95 % 1017,0 hPa 0,0 l/m 0 min 2 min 0,0 UV-I 0 W/m 2,6 km/h (1 Bft)
29.06.2013 00:18 13,9 C 12,3 C 95 % 1017,0 hPa 0,0 l/m 0 min 2 min 0,0 UV-I 0 W/m 0,0 km/h (0 Bft)
29.06.2013 00:20 13,9 C 12,3 C 95 % 1017,0 hPa 0,0 l/m 0 min 2 min 0,0 UV-I 0 W/m 0,0 km/h (0 Bft)
29.06.2013 00:22 13,8 C 12,3 C 95 % 1017,0 hPa 0,0 l/m 0 min 2 min 0,0 UV-I 0 W/m 0,0 km/h (0 Bft)
29.06.2013 00:24 13,8 C 12,3 C 95 % 1017,0 hPa 0,2 l/m 0 min 2 min 0,0 UV-I 0 W/m 0,0 km/h (0 Bft)
29.06.2013 00:26 13,8 C 12,3 C 95 % 1017,0 hPa 0,0 l/m 0 min 2 min 0,0 UV-I 0 W/m 0,0 km/h (0 Bft)
29.06.2013 00:28 13,8 C 12,3 C 95 % 1016,9 hPa 0,0 l/m 0 min 2 min 0,0 UV-I 0 W/m 0,0 km/h (0 Bft)
29.06.2013 00:30 13,8 C 12,3 C 95 % 1016,9 hPa 0,0 l/m 0 min 2 min 0,0 UV-I 0 W/m 0,0 km/h (0 Bft)
29.06.2013 00:32 13,8 C 12,3 C 95 % 1016,9 hPa 0,0 l/m 0 min 2 min 0,0 UV-I 0 W/m 5,1 km/h (1 Bft)
29.06.2013 00:34 13,8 C 12,3 C 95 % 1016,8 hPa 0,0 l/m 0 min 2 min 0,0 UV-I 0 W/m 2,6 km/h (1 Bft)
29.06.2013 00:36 13,8 C 12,3 C 95 % 1016,8 hPa 0,0 l/m 0 min 2 min 0,0 UV-I 0 W/m 2,6 km/h (1 Bft)
29.06.2013 00:38 13,8 C 12,3 C 95 % 1016,7 hPa 0,0 l/m 0 min 2 min 0,0 UV-I 0 W/m 0,0 km/h (0 Bft)
29.06.2013 00:40 13,8 C 12,3 C 96 % 1016,8 hPa 0,2 l/m 0 min 2 min 0,0 UV-I 0 W/m 0,0 km/h (0 Bft)
29.06.2013 00:42 13,8 C 12,3 C 96 % 1016,7 hPa 0,0 l/m 0 min 2 min 0,0 UV-I 0 W/m 0,0 km/h (0 Bft)
29.06.2013 00:44 13,8 C 12,3 C 96 % 1016,6 hPa 0,0 l/m 0 min 2 min 0,0 UV-I 0 W/m 0,0 km/h (0 Bft)
29.06.2013 00:46 13,8 C 12,3 C 96 % 1016,6 hPa 0,0 l/m 0 min 2 min 0,0 UV-I 0 W/m 0,0 km/h (0 Bft)
29.06.2013 00:48 13,8 C 12,3 C 96 % 1016,6 hPa 0,0 l/m 0 min 2 min 0,0 UV-I 0 W/m 7,7 km/h (2 Bft)
29.06.2013 00:50 13,8 C 12,3 C 96 % 1016,6 hPa 0,0 l/m 0 min 2 min 0,0 UV-I 0 W/m 0,0 km/h (0 Bft)
29.06.2013 00:52 13,8 C 12,3 C 96 % 1016,5 hPa 0,2 l/m 0 min 2 min 0,0 UV-I 0 W/m 2,6 km/h (1 Bft)
29.06.2013 00:54 13,8 C 12,3 C 96 % 1016,5 hPa 0,0 l/m 0 min 2 min 0,0 UV-I 0 W/m 10,3 km/h (2 Bft)
29.06.2013 00:56 13,8 C 12,3 C 96 % 1016,6 hPa 0,0 l/m 0 min 2 min 0,0 UV-I 0 W/m 15,4 km/h (3 Bft)
29.06.2013 00:58 13,8 C 12,3 C 96 % 1016,6 hPa 0,0 l/m 0 min 2 min 0,0 UV-I 0 W/m 0,0 km/h (0 Bft)
29.06.2013 01:00 13,8 C 12,3 C 96 % 1016,5 hPa 0,0 l/m 0 min 2 min 0,0 UV-I 0 W/m 0,0 km/h (0 Bft)
29.06.2013 01:02 13,8 C 12,3 C 96 % 1016,5 hPa 0,2 l/m 0 min 2 min 0,0 UV-I 0 W/m 0,0 km/h (0 Bft)
29.06.2013 01:05 13,7 C 12,3 C 96 % 1016,2 hPa 0,0 l/m 0 min 2 min 0,0 UV-I 0 W/m 7,7 km/h (2 Bft)
29.06.2013 01:06 13,7 C 12,3 C 96 % 1016,2 hPa 0,0 l/m 0 min 1 min 0,0 UV-I 0 W/m 0,0 km/h (0 Bft)
29.06.2013 01:08 13,7 C 12,3 C 96 % 1016,2 hPa 0,0 l/m 0 min 2 min 0,0 UV-I 0 W/m 12,9 km/h (3 Bft)
29.06.2013 01:10 13,7 C 12,3 C 96 % 1016,2 hPa 0,2 l/m 0 min 2 min 0,0 UV-I 0 W/m 7,7 km/h (2 Bft)
29.06.2013 01:12 13,7 C 12,3 C 96 % 1016,1 hPa 0,0 l/m 0 min 2 min 0,0 UV-I 0 W/m 5,1 km/h (1 Bft)
29.06.2013 01:14 13,7 C 12,3 C 96 % 1016,2 hPa 0,0 l/m 0 min 2 min 0,0 UV-I 0 W/m 5,1 km/h (1 Bft)
29.06.2013 01:16 13,7 C 12,3 C 97 % 1016,1 hPa 0,0 l/m 0 min 2 min 0,0 UV-I 0 W/m 15,4 km/h (3 Bft)
29.06.2013 01:18 13,7 C 12,3 C 97 % 1016,0 hPa 0,0 l/m 0 min 2 min 0,0 UV-I 0 W/m 10,3 km/h (2 Bft)
29.06.2013 01:20 13,7 C 12,3 C 97 % 1016,1 hPa 0,0 l/m 0 min 2 min 0,0 UV-I 0 W/m 0,0 km/h (0 Bft)
29.06.2013 01:22 13,6 C 12,3 C 97 % 1016,1 hPa 0,0 l/m 0 min 2 min 0,0 UV-I 0 W/m 10,3 km/h (2 Bft)
29.06.2013 01:24 13,6 C 12,3 C 97 % 1016,0 hPa 0,0 l/m 0 min 2 min 0,0 UV-I 0 W/m 2,6 km/h (1 Bft)
29.06.2013 01:26 13,6 C 12,3 C 97 % 1015,9 hPa 0,0 l/m 0 min 2 min 0,0 UV-I 0 W/m 0,0 km/h (0 Bft)
29.06.2013 01:28 13,6 C 12,3 C 97 % 1015,9 hPa 0,0 l/m 0 min 2 min 0,0 UV-I 0 W/m 0,0 km/h (0 Bft)
29.06.2013 01:30 13,6 C 12,3 C 97 % 1015,9 hPa 0,2 l/m 0 min 2 min 0,0 UV-I 0 W/m 5,1 km/h (1 Bft)
29.06.2013 01:32 13,6 C 12,3 C 97 % 1015,9 hPa 0,0 l/m 0 min 2 min 0,0 UV-I 0 W/m 12,9 km/h (3 Bft)
29.06.2013 01:34 13,6 C 12,3 C 97 % 1015,9 hPa 0,0 l/m 0 min 2 min 0,0 UV-I 0 W/m 12,9 km/h (3 Bft)
29.06.2013 01:36 13,6 C 12,3 C 97 % 1015,8 hPa 0,0 l/m 0 min 2 min 0,0 UV-I 0 W/m 5,1 km/h (1 Bft)
29.06.2013 01:38 13,6 C 12,3 C 97 % 1015,8 hPa 0,0 l/m 0 min 2 min 0,0 UV-I 0 W/m 2,6 km/h (1 Bft)
29.06.2013 01:40 13,6 C 12,3 C 97 % 1015,8 hPa 0,2 l/m 0 min 2 min 0,0 UV-I 0 W/m 0,0 km/h (0 Bft)
29.06.2013 01:42 13,6 C 12,3 C 97 % 1015,7 hPa 0,0 l/m 0 min 2 min 0,0 UV-I 0 W/m 0,0 km/h (0 Bft)
29.06.2013 01:44 13,6 C 12,3 C 97 % 1015,7 hPa 0,0 l/m 0 min 2 min 0,0 UV-I 0 W/m 7,7 km/h (2 Bft)
29.06.2013 01:46 13,6 C 12,3 C 97 % 1015,6 hPa 0,0 l/m 0 min 2 min 0,0 UV-I 0 W/m 2,6 km/h (1 Bft)
29.06.2013 01:48 13,6 C 12,3 C 97 % 1015,6 hPa 0,0 l/m 0 min 2 min 0,0 UV-I 0 W/m 5,1 km/h (1 Bft)
29.06.2013 01:50 13,6 C 12,3 C 97 % 1015,6 hPa 0,0 l/m 0 min 2 min 0,0 UV-I 0 W/m 10,3 km/h (2 Bft)
29.06.2013 01:52 13,6 C 12,3 C 97 % 1015,6 hPa 0,0 l/m 0 min 2 min 0,0 UV-I 0 W/m 10,3 km/h (2 Bft)
29.06.2013 01:54 13,6 C 12,3 C 97 % 1015,5 hPa 0,0 l/m 0 min 2 min 0,0 UV-I 0 W/m 5,1 km/h (1 Bft)
29.06.2013 01:56 13,6 C 12,3 C 97 % 1015,4 hPa 0,0 l/m 0 min 2 min 0,0 UV-I 0 W/m 10,3 km/h (2 Bft)
29.06.2013 01:58 13,6 C 12,3 C 97 % 1015,4 hPa 0,2 l/m 0 min 2 min 0,0 UV-I 0 W/m 5,1 km/h (1 Bft)
29.06.2013 02:00 13,5 C 12,3 C 97 % 1015,4 hPa 0,0 l/m 0 min 2 min 0,0 UV-I 0 W/m 0,0 km/h (0 Bft)
29.06.2013 02:02 13,5 C 12,3 C 97 % 1015,3 hPa 0,0 l/m 0 min 2 min 0,0 UV-I 0 W/m 15,4 km/h (3 Bft)
29.06.2013 02:06 13,5 C 12,3 C 97 % 1015,2 hPa 0,2 l/m 0 min 2 min 0,0 UV-I 0 W/m 7,7 km/h (2 Bft)
29.06.2013 02:08 13,5 C 12,3 C 97 % 1015,1 hPa 0,0 l/m 0 min 2 min 0,0 UV-I 0 W/m 0,0 km/h (0 Bft)
29.06.2013 02:10 13,5 C 12,3 C 97 % 1015,1 hPa 0,0 l/m 0 min 2 min 0,0 UV-I 0 W/m 7,7 km/h (2 Bft)
29.06.2013 02:12 13,5 C 12,3 C 97 % 1015,1 hPa 0,0 l/m 0 min 2 min 0,0 UV-I 0 W/m 0,0 km/h (0 Bft)
29.06.2013 02:14 13,5 C 12,3 C 97 % 1015,0 hPa 0,2 l/m 0 min 2 min 0,0 UV-I 0 W/m 18,0 km/h (3 Bft)
29.06.2013 02:16 13,5 C 12,3 C 97 % 1015,1 hPa 0,0 l/m 0 min 2 min 0,0 UV-I 0 W/m 0,0 km/h (0 Bft)
29.06.2013 02:18 13,5 C 12,3 C 97 % 1015,1 hPa 0,0 l/m 0 min 2 min 0,0 UV-I 0 W/m 5,1 km/h (1 Bft)
29.06.2013 02:20 13,5 C 12,3 C 97 % 1015,0 hPa 0,0 l/m 0 min 2 min 0,0 UV-I 0 W/m 12,9 km/h (3 Bft)
29.06.2013 02:22 13,5 C 12,3 C 97 % 1014,9 hPa 0,0 l/m 0 min 2 min 0,0 UV-I 0 W/m 0,0 km/h (0 Bft)
29.06.2013 02:24 13,5 C 12,3 C 97 % 1014,9 hPa 0,2 l/m 0 min 2 min 0,0 UV-I 0 W/m 7,7 km/h (2 Bft)
29.06.2013 02:26 13,5 C 12,3 C 98 % 1014,9 hPa 0,0 l/m 0 min 2 min 0,0 UV-I 0 W/m 5,1 km/h (1 Bft)
29.06.2013 02:28 13,5 C 12,3 C 98 % 1014,8 hPa 0,0 l/m 0 min 2 min 0,0 UV-I 0 W/m 15,4 km/h (3 Bft)
29.06.2013 02:30 13,4 C 12,3 C 98 % 1014,8 hPa 0,0 l/m 0 min 2 min 0,0 UV-I 0 W/m 2,6 km/h (1 Bft)
29.06.2013 02:32 13,5 C 12,3 C 98 % 1014,8 hPa 0,2 l/m 0 min 2 min 0,0 UV-I 0 W/m 2,6 km/h (1 Bft)
29.06.2013 02:34 13,5 C 12,3 C 98 % 1014,8 hPa 0,0 l/m 0 min 2 min 0,0 UV-I 0 W/m 0,0 km/h (0 Bft)
29.06.2013 02:36 13,4 C 12,3 C 98 % 1014,7 hPa 0,2 l/m 0 min 2 min 0,0 UV-I 0 W/m 12,9 km/h (3 Bft)
29.06.2013 02:38 13,4 C 12,3 C 98 % 1014,7 hPa 0,0 l/m 0 min 2 min 0,0 UV-I 0 W/m 7,7 km/h (2 Bft)
29.06.2013 02:40 13,4 C 12,3 C 98 % 1014,6 hPa 0,2 l/m 0 min 2 min 0,0 UV-I 0 W/m 0,0 km/h (0 Bft)
29.06.2013 02:42 13,4 C 12,3 C 98 % 1014,6 hPa 0,0 l/m 0 min 2 min 0,0 UV-I 0 W/m 5,1 km/h (1 Bft)
29.06.2013 02:44 13,4 C 12,3 C 98 % 1014,6 hPa 0,0 l/m 0 min 2 min 0,0 UV-I 0 W/m 0,0 km/h (0 Bft)
29.06.2013 02:46 13,4 C 12,3 C 98 % 1014,6 hPa 0,0 l/m 0 min 2 min 0,0 UV-I 0 W/m 10,3 km/h (2 Bft)
29.06.2013 02:48 13,4 C 12,3 C 98 % 1014,6 hPa 0,0 l/m 0 min 2 min 0,0 UV-I 0 W/m 0,0 km/h (0 Bft)
29.06.2013 02:50 13,4 C 12,3 C 98 % 1014,5 hPa 0,0 l/m 0 min 2 min 0,0 UV-I 0 W/m 2,6 km/h (1 Bft)
29.06.2013 02:52 13,4 C 12,3 C 98 % 1014,5 hPa 0,0 l/m 0 min 2 min 0,0 UV-I 0 W/m 10,3 km/h (2 Bft)
29.06.2013 02:54 13,4 C 12,3 C 98 % 1014,4 hPa 0,0 l/m 0 min 2 min 0,0 UV-I 0 W/m 0,0 km/h (0 Bft)
29.06.2013 02:56 13,4 C 12,3 C 98 % 1014,4 hPa 0,2 l/m 0 min 2 min 0,0 UV-I 0 W/m 10,3 km/h (2 Bft)
29.06.2013 02:58 13,4 C 12,3 C 98 % 1014,3 hPa 0,0 l/m 0 min 2 min 0,0 UV-I 0 W/m 2,6 km/h (1 Bft)
29.06.2013 03:00 13,4 C 12,3 C 98 % 1014,2 hPa 0,0 l/m 0 min 2 min 0,0 UV-I 0 W/m 0,0 km/h (0 Bft)
29.06.2013 03:02 13,4 C 12,3 C 98 % 1014,3 hPa 0,0 l/m 0 min 2 min 0,0 UV-I 0 W/m 5,1 km/h (1 Bft)
29.06.2013 03:06 13,4 C 12,3 C 98 % 1014,2 hPa 0,0 l/m 0 min 2 min 0,0 UV-I 0 W/m 2,6 km/h (1 Bft)
29.06.2013 03:08 13,4 C 12,3 C 98 % 1014,2 hPa 0,2 l/m 0 min 2 min 0,0 UV-I 0 W/m 7,7 km/h (2 Bft)
29.06.2013 03:10 13,4 C 12,3 C 98 % 1014,1 hPa 0,0 l/m 0 min 2 min 0,0 UV-I 0 W/m 10,3 km/h (2 Bft)
29.06.2013 03:12 13,4 C 12,3 C 98 % 1014,1 hPa 0,0 l/m 0 min 2 min 0,0 UV-I 0 W/m 10,3 km/h (2 Bft)
29.06.2013 03:14 13,4 C 12,3 C 98 % 1014,0 hPa 0,0 l/m 0 min 2 min 0,0 UV-I 0 W/m 7,7 km/h (2 Bft)
29.06.2013 03:16 13,4 C 12,3 C 98 % 1014,0 hPa 0,0 l/m 0 min 2 min 0,0 UV-I 0 W/m 7,7 km/h (2 Bft)
29.06.2013 03:18 13,4 C 12,3 C 98 % 1014,0 hPa 0,2 l/m 0 min 2 min 0,0 UV-I 0 W/m 2,6 km/h (1 Bft)
29.06.2013 03:20 13,4 C 12,3 C 98 % 1014,0 hPa 0,0 l/m 0 min 2 min 0,0 UV-I 0 W/m 0,0 km/h (0 Bft)
29.06.2013 03:22 13,4 C 12,3 C 98 % 1013,9 hPa 0,0 l/m 0 min 2 min 0,0 UV-I 0 W/m 12,9 km/h (3 Bft)
29.06.2013 03:24 13,4 C 12,3 C 98 % 1013,8 hPa 0,0 l/m 0 min 2 min 0,0 UV-I 0 W/m 5,1 km/h (1 Bft)
29.06.2013 03:26 13,4 C 12,3 C 98 % 1013,9 hPa 0,2 l/m 0 min 2 min 0,0 UV-I 0 W/m 2,6 km/h (1 Bft)
29.06.2013 03:28 13,4 C 12,3 C 98 % 1013,8 hPa 0,0 l/m 0 min 2 min 0,0 UV-I 0 W/m 5,1 km/h (1 Bft)
29.06.2013 03:30 13,4 C 12,3 C 98 % 1013,7 hPa 0,0 l/m 0 min 2 min 0,0 UV-I 0 W/m 5,1 km/h (1 Bft)
29.06.2013 03:32 13,5 C 12,3 C 98 % 1013,7 hPa 0,0 l/m 0 min 0 min 0,0 UV-I 0 W/m 5,1 km/h (1 Bft)
29.06.2013 03:34 13,4 C 12,3 C 98 % 1013,6 hPa 0,0 l/m 0 min 2 min 0,0 UV-I 0 W/m 7,7 km/h (2 Bft)
29.06.2013 03:36 13,5 C 12,3 C 98 % 1013,6 hPa 0,0 l/m 0 min 2 min 0,0 UV-I 0 W/m 0,0 km/h (0 Bft)
29.06.2013 03:38 13,5 C 12,3 C 98 % 1013,6 hPa 0,0 l/m 0 min 2 min 0,0 UV-I 0 W/m 15,4 km/h (3 Bft)
29.06.2013 03:40 13,5 C 12,3 C 98 % 1013,6 hPa 0,0 l/m 0 min 2 min 0,0 UV-I 0 W/m 5,1 km/h (1 Bft)
29.06.2013 03:42 13,5 C 12,3 C 98 % 1013,5 hPa 0,0 l/m 0 min 2 min 0,0 UV-I 0 W/m 0,0 km/h (0 Bft)
29.06.2013 03:44 13,5 C 12,3 C 98 % 1013,4 hPa 0,0 l/m 0 min 2 min 0,0 UV-I 0 W/m 2,6 km/h (1 Bft)
29.06.2013 03:46 13,5 C 12,3 C 98 % 1013,3 hPa 0,0 l/m 0 min 2 min 0,0 UV-I 0 W/m 12,9 km/h (3 Bft)
29.06.2013 03:48 13,5 C 12,3 C 98 % 1013,4 hPa 0,0 l/m 0 min 0 min 0,0 UV-I 0 W/m 10,3 km/h (2 Bft)
29.06.2013 03:50 13,5 C 12,3 C 98 % 1013,4 hPa 0,0 l/m 0 min 0 min 0,0 UV-I 0 W/m 12,9 km/h (3 Bft)
29.06.2013 03:52 13,5 C 12,3 C 98 % 1013,4 hPa 0,0 l/m 0 min 0 min 0,0 UV-I 0 W/m 10,3 km/h (2 Bft)
29.06.2013 03:54 13,5 C 12,3 C 98 % 1013,3 hPa 0,2 l/m 0 min 2 min 0,0 UV-I 0 W/m 0,0 km/h (0 Bft)
29.06.2013 03:56 13,5 C 12,3 C 98 % 1013,3 hPa 0,0 l/m 0 min 2 min 0,0 UV-I 0 W/m 10,3 km/h (2 Bft)
29.06.2013 03:58 13,5 C 12,3 C 98 % 1013,3 hPa 0,0 l/m 0 min 2 min 0,0 UV-I 0 W/m 2,6 km/h (1 Bft)
29.06.2013 04:00 13,6 C 12,3 C 98 % 1013,3 hPa 0,0 l/m 0 min 2 min 0,0 UV-I 0 W/m 12,9 km/h (3 Bft)
29.06.2013 04:02 13,5 C 12,3 C 98 % 1013,3 hPa 0,0 l/m 0 min 0 min 0,0 UV-I 0 W/m 10,3 km/h (2 Bft)
29.06.2013 04:06 13,6 C 12,3 C 98 % 1013,3 hPa 0,0 l/m 0 min 0 min 0,0 UV-I 0 W/m 12,9 km/h (3 Bft)
29.06.2013 04:08 13,6 C 12,3 C 98 % 1013,3 hPa 0,0 l/m 0 min 2 min 0,0 UV-I 0 W/m 15,4 km/h (3 Bft)
29.06.2013 04:10 13,6 C 12,3 C 98 % 1013,2 hPa 0,2 l/m 0 min 2 min 0,0 UV-I 0 W/m 7,7 km/h (2 Bft)
29.06.2013 04:12 13,6 C 12,3 C 98 % 1013,3 hPa 0,0 l/m 0 min 2 min 0,0 UV-I 0 W/m 2,6 km/h (1 Bft)
29.06.2013 04:14 13,6 C 12,3 C 98 % 1013,3 hPa 0,0 l/m 0 min 2 min 0,0 UV-I 0 W/m 5,1 km/h (1 Bft)
29.06.2013 04:16 13,6 C 12,3 C 98 % 1013,3 hPa 0,0 l/m 0 min 0 min 0,0 UV-I 0 W/m 7,7 km/h (2 Bft)
29.06.2013 04:18 13,6 C 12,3 C 98 % 1013,2 hPa 0,0 l/m 0 min 2 min 0,0 UV-I 0 W/m 7,7 km/h (2 Bft)
29.06.2013 04:20 13,6 C 12,3 C 98 % 1013,2 hPa 0,0 l/m 0 min 2 min 0,0 UV-I 0 W/m 2,6 km/h (1 Bft)
29.06.2013 04:22 13,6 C 12,9 C 99 % 1013,2 hPa 0,0 l/m 0 min 0 min 0,0 UV-I 0 W/m 5,1 km/h (1 Bft)
29.06.2013 04:24 13,6 C 12,9 C 99 % 1013,2 hPa 0,0 l/m 0 min 0 min 0,0 UV-I 0 W/m 5,1 km/h (1 Bft)
29.06.2013 04:26 13,6 C 12,9 C 99 % 1013,2 hPa 0,0 l/m 0 min 0 min 0,0 UV-I 0 W/m 10,3 km/h (2 Bft)
29.06.2013 04:28 13,7 C 12,9 C 99 % 1013,2 hPa 0,0 l/m 0 min 2 min 0,0 UV-I 0 W/m 7,7 km/h (2 Bft)
29.06.2013 04:30 13,7 C 12,9 C 99 % 1013,2 hPa 0,0 l/m 0 min 0 min 0,0 UV-I 0 W/m 12,9 km/h (3 Bft)
29.06.2013 04:32 13,7 C 12,9 C 99 % 1013,3 hPa 0,0 l/m 0 min 2 min 0,0 UV-I 0 W/m 7,7 km/h (2 Bft)
29.06.2013 04:34 13,7 C 12,9 C 99 % 1013,2 hPa 0,0 l/m 0 min 2 min 0,0 UV-I 0 W/m 7,7 km/h (2 Bft)
29.06.2013 04:36 13,7 C 12,9 C 99 % 1013,2 hPa 0,2 l/m 0 min 2 min 0,0 UV-I 0 W/m 7,7 km/h (2 Bft)
29.06.2013 04:38 13,7 C 12,9 C 99 % 1013,2 hPa 0,0 l/m 0 min 2 min 0,0 UV-I 0 W/m 7,7 km/h (2 Bft)
29.06.2013 04:40 13,8 C 12,9 C 99 % 1013,1 hPa 0,0 l/m 0 min 0 min 0,0 UV-I 0 W/m 5,1 km/h (1 Bft)
29.06.2013 04:42 13,8 C 12,9 C 99 % 1013,1 hPa 0,0 l/m 0 min 2 min 0,0 UV-I 0 W/m 7,7 km/h (2 Bft)
29.06.2013 04:44 13,8 C 12,9 C 99 % 1013,2 hPa 0,0 l/m 0 min 2 min 0,0 UV-I 0 W/m 7,7 km/h (2 Bft)
29.06.2013 04:46 13,8 C 12,9 C 99 % 1013,1 hPa 0,0 l/m 0 min 2 min 0,0 UV-I 0 W/m 5,1 km/h (1 Bft)
29.06.2013 04:48 13,8 C 12,9 C 99 % 1013,1 hPa 0,0 l/m 0 min 2 min 0,0 UV-I 0 W/m 5,1 km/h (1 Bft)
29.06.2013 04:50 13,9 C 12,9 C 99 % 1013,1 hPa 0,0 l/m 0 min 2 min 0,0 UV-I 0 W/m 0,0 km/h (0 Bft)
29.06.2013 04:52 13,9 C 12,9 C 99 % 1013,0 hPa 0,2 l/m 0 min 2 min 0,0 UV-I 0 W/m 7,7 km/h (2 Bft)
29.06.2013 04:54 13,9 C 12,9 C 99 % 1013,1 hPa 0,0 l/m 0 min 2 min 0,0 UV-I 0 W/m 12,9 km/h (3 Bft)
29.06.2013 04:56 14,0 C 12,9 C 99 % 1013,1 hPa 0,0 l/m 0 min 2 min 0,0 UV-I 0 W/m 12,9 km/h (3 Bft)
29.06.2013 04:58 14,0 C 12,9 C 99 % 1013,1 hPa 0,0 l/m 0 min 2 min 0,0 UV-I 0 W/m 10,3 km/h (2 Bft)
29.06.2013 05:00 14,0 C 12,9 C 99 % 1013,1 hPa 0,0 l/m 0 min 2 min 0,0 UV-I 0 W/m 2,6 km/h (1 Bft)
29.06.2013 05:02 14,0 C 12,9 C 99 % 1013,0 hPa 0,0 l/m 0 min 2 min 0,0 UV-I 0 W/m 12,9 km/h (3 Bft)
29.06.2013 05:05 14,0 C 12,9 C 99 % 1013,0 hPa 0,0 l/m 0 min 0 min 0,0 UV-I 0 W/m 7,7 km/h (2 Bft)
29.06.2013 05:06 14,0 C 12,9 C 99 % 1013,0 hPa 0,0 l/m 0 min 0 min 0,0 UV-I 0 W/m 0,0 km/h (0 Bft)
29.06.2013 05:08 14,0 C 12,9 C 99 % 1013,0 hPa 0,0 l/m 0 min 2 min 0,0 UV-I 0 W/m 5,1 km/h (1 Bft)
29.06.2013 05:10 14,0 C 12,9 C 99 % 1013,0 hPa 0,0 l/m 0 min 0 min 0,0 UV-I 0 W/m 10,3 km/h (2 Bft)
29.06.2013 05:12 14,0 C 12,9 C 99 % 1013,0 hPa 0,0 l/m 0 min 0 min 0,0 UV-I 0 W/m 0,0 km/h (0 Bft)
29.06.2013 05:14 14,0 C 12,9 C 99 % 1013,0 hPa 0,0 l/m 0 min 0 min 0,0 UV-I 0 W/m 5,1 km/h (1 Bft)
29.06.2013 05:16 14,0 C 12,9 C 99 % 1013,0 hPa 0,0 l/m 0 min 0 min 0,0 UV-I 0 W/m 7,7 km/h (2 Bft)
29.06.2013 05:18 14,0 C 12,9 C 99 % 1013,1 hPa 0,0 l/m 0 min 0 min 0,0 UV-I 0 W/m 5,1 km/h (1 Bft)
29.06.2013 05:20 14,1 C 12,9 C 99 % 1013,1 hPa 0,0 l/m 0 min 0 min 0,0 UV-I 0 W/m 10,3 km/h (2 Bft)
29.06.2013 05:22 14,1 C 12,9 C 99 % 1013,1 hPa 0,2 l/m 0 min 2 min 0,0 UV-I 0 W/m 20,6 km/h (4 Bft)
29.06.2013 05:24 14,1 C 12,9 C 99 % 1013,1 hPa 0,0 l/m 0 min 0 min 0,0 UV-I 0 W/m 5,1 km/h (1 Bft)
29.06.2013 05:26 14,1 C 12,9 C 99 % 1013,1 hPa 0,0 l/m 0 min 0 min 0,0 UV-I 0 W/m 5,1 km/h (1 Bft)
29.06.2013 05:28 14,2 C 12,9 C 99 % 1013,1 hPa 0,0 l/m 0 min 0 min 0,0 UV-I 0 W/m 7,7 km/h (2 Bft)
29.06.2013 05:30 14,2 C 12,9 C 99 % 1013,1 hPa 0,0 l/m 0 min 0 min 0,0 UV-I 0 W/m 15,4 km/h (3 Bft)
29.06.2013 05:32 14,2 C 12,9 C 99 % 1013,1 hPa 0,0 l/m 0 min 2 min 0,0 UV-I 0 W/m 12,9 km/h (3 Bft)
29.06.2013 05:34 14,2 C 12,9 C 99 % 1013,1 hPa 0,0 l/m 0 min 2 min 0,0 UV-I 0 W/m 7,7 km/h (2 Bft)
29.06.2013 05:36 14,2 C 12,9 C 99 % 1013,2 hPa 0,0 l/m 0 min 2 min 0,0 UV-I 0 W/m 10,3 km/h (2 Bft)
29.06.2013 05:38 14,2 C 12,9 C 99 % 1013,2 hPa 0,0 l/m 0 min 2 min 0,0 UV-I 5 W/m 7,7 km/h (2 Bft)
29.06.2013 05:40 14,2 C 12,9 C 99 % 1013,3 hPa 0,2 l/m 0 min 2 min 0,0 UV-I 5 W/m 0,0 km/h (0 Bft)
29.06.2013 05:42 14,2 C 12,9 C 99 % 1013,2 hPa 0,0 l/m 0 min 2 min 0,0 UV-I 7 W/m 7,7 km/h (2 Bft)
29.06.2013 05:44 14,2 C 12,9 C 99 % 1013,2 hPa 0,0 l/m 0 min 2 min 0,0 UV-I 7 W/m 5,1 km/h (1 Bft)
29.06.2013 05:46 14,2 C 12,9 C 99 % 1013,2 hPa 0,0 l/m 0 min 2 min 0,0 UV-I 9 W/m 18,0 km/h (3 Bft)
29.06.2013 05:48 14,2 C 12,9 C 99 % 1013,3 hPa 0,0 l/m 0 min 2 min 0,0 UV-I 11 W/m 7,7 km/h (2 Bft)
29.06.2013 05:50 14,2 C 12,9 C 99 % 1013,3 hPa 0,0 l/m 0 min 2 min 0,0 UV-I 11 W/m 2,6 km/h (1 Bft)
29.06.2013 05:52 14,2 C 12,9 C 99 % 1013,3 hPa 0,2 l/m 0 min 2 min 0,0 UV-I 11 W/m 10,3 km/h (2 Bft)
29.06.2013 05:54 14,2 C 12,9 C 99 % 1013,3 hPa 0,0 l/m 0 min 2 min 0,0 UV-I 11 W/m 7,7 km/h (2 Bft)
29.06.2013 05:56 14,1 C 12,9 C 99 % 1013,3 hPa 0,0 l/m 0 min 2 min 0,0 UV-I 11 W/m 0,0 km/h (0 Bft)
29.06.2013 05:58 14,1 C 12,9 C 99 % 1013,4 hPa 0,2 l/m 0 min 2 min 0,0 UV-I 14 W/m 2,6 km/h (1 Bft)
29.06.2013 06:00 14,1 C 12,9 C 99 % 1013,4 hPa 0,0 l/m 0 min 2 min 0,0 UV-I 16 W/m 5,1 km/h (1 Bft)
29.06.2013 06:02 14,1 C 12,9 C 99 % 1013,3 hPa 0,0 l/m 0 min 2 min 0,0 UV-I 14 W/m 2,6 km/h (1 Bft)
29.06.2013 06:06 14,1 C 12,9 C 99 % 1013,3 hPa 0,0 l/m 0 min 2 min 0,0 UV-I 12 W/m 15,4 km/h (3 Bft)
29.06.2013 06:08 14,1 C 12,9 C 99 % 1013,4 hPa 0,0 l/m 0 min 0 min 0,0 UV-I 14 W/m 5,1 km/h (1 Bft)
29.06.2013 06:10 14,1 C 12,9 C 99 % 1013,4 hPa 0,0 l/m 0 min 2 min 0,0 UV-I 18 W/m 0,0 km/h (0 Bft)
29.06.2013 06:12 14,1 C 12,9 C 99 % 1013,4 hPa 0,0 l/m 0 min 2 min 0,0 UV-I 19 W/m 0,0 km/h (0 Bft)
29.06.2013 06:14 14,1 C 12,9 C 99 % 1013,4 hPa 0,0 l/m 0 min 2 min 0,0 UV-I 19 W/m 5,1 km/h (1 Bft)
29.06.2013 06:16 14,2 C 12,9 C 99 % 1013,4 hPa 0,0 l/m 0 min 2 min 0,0 UV-I 19 W/m 0,0 km/h (0 Bft)
29.06.2013 06:18 14,1 C 13,4 C 99 % 1013,4 hPa 0,0 l/m 0 min 2 min 0,0 UV-I 26 W/m 5,1 km/h (1 Bft)
29.06.2013 06:20 14,1 C 13,4 C 99 % 1013,3 hPa 0,0 l/m 0 min 0 min 0,0 UV-I 21 W/m 7,7 km/h (2 Bft)
29.06.2013 06:22 14,2 C 13,4 C 99 % 1013,4 hPa 0,0 l/m 0 min 0 min 0,0 UV-I 18 W/m 7,7 km/h (2 Bft)
29.06.2013 06:24 14,2 C 13,4 C 99 % 1013,4 hPa 0,0 l/m 0 min 0 min 0,0 UV-I 19 W/m 0,0 km/h (0 Bft)
29.06.2013 06:26 14,2 C 13,4 C 99 % 1013,4 hPa 0,0 l/m 0 min 0 min 0,0 UV-I 14 W/m 10,3 km/h (2 Bft)
29.06.2013 06:28 14,2 C 13,4 C 99 % 1013,5 hPa 0,0 l/m 0 min 0 min 0,0 UV-I 12 W/m 5,1 km/h (1 Bft)
29.06.2013 06:30 14,2 C 13,4 C 99 % 1013,5 hPa 0,0 l/m 0 min 0 min 0,0 UV-I 16 W/m 2,6 km/h (1 Bft)
29.06.2013 06:32 14,2 C 13,4 C 99 % 1013,6 hPa 0,0 l/m 0 min 0 min 0,0 UV-I 16 W/m 0,0 km/h (0 Bft)
29.06.2013 06:34 14,2 C 13,4 C 99 % 1013,6 hPa 0,0 l/m 0 min 0 min 0,0 UV-I 19 W/m 18,0 km/h (3 Bft)
29.06.2013 06:36 14,2 C 13,4 C 99 % 1013,7 hPa 0,0 l/m 0 min 0 min 0,0 UV-I 18 W/m 12,9 km/h (3 Bft)
29.06.2013 06:38 14,2 C 13,4 C 99 % 1013,7 hPa 0,0 l/m 0 min 0 min 0,0 UV-I 18 W/m 5,1 km/h (1 Bft)
29.06.2013 06:40 14,2 C 13,4 C 99 % 1013,7 hPa 0,0 l/m 0 min 0 min 0,0 UV-I 16 W/m 2,6 km/h (1 Bft)
29.06.2013 06:42 14,2 C 13,4 C 99 % 1013,8 hPa 0,0 l/m 0 min 0 min 0,0 UV-I 16 W/m 0,0 km/h (0 Bft)
29.06.2013 06:44 14,2 C 13,4 C 99 % 1013,8 hPa 0,0 l/m 0 min 0 min 0,0 UV-I 18 W/m 7,7 km/h (2 Bft)
29.06.2013 06:46 14,2 C 13,4 C 99 % 1013,8 hPa 0,0 l/m 0 min 0 min 0,0 UV-I 14 W/m 0,0 km/h (0 Bft)
29.06.2013 06:48 14,2 C 13,4 C 99 % 1013,8 hPa 0,0 l/m 0 min 0 min 0,0 UV-I 12 W/m 10,3 km/h (2 Bft)
29.06.2013 06:50 14,2 C 13,4 C 99 % 1013,9 hPa 0,0 l/m 0 min 0 min 0,0 UV-I 9 W/m 5,1 km/h (1 Bft)
29.06.2013 06:52 14,2 C 13,4 C 99 % 1013,8 hPa 0,0 l/m 0 min 0 min 0,0 UV-I 11 W/m 7,7 km/h (2 Bft)
29.06.2013 06:54 14,2 C 13,4 C 99 % 1013,9 hPa 0,0 l/m 0 min 0 min 0,0 UV-I 9 W/m 5,1 km/h (1 Bft)
29.06.2013 06:56 14,2 C 13,4 C 99 % 1013,9 hPa 0,0 l/m 0 min 0 min 0,0 UV-I 9 W/m 7,7 km/h (2 Bft)
29.06.2013 06:58 14,2 C 13,4 C 99 % 1013,9 hPa 0,0 l/m 0 min 0 min 0,0 UV-I 9 W/m 0,0 km/h (0 Bft)
29.06.2013 07:00 14,2 C 13,4 C 99 % 1013,9 hPa 0,0 l/m 0 min 2 min 0,0 UV-I 11 W/m 12,9 km/h (3 Bft)
29.06.2013 07:02 14,2 C 12,9 C 99 % 1014,0 hPa 0,0 l/m 0 min 0 min 0,0 UV-I 12 W/m 7,7 km/h (2 Bft)
29.06.2013 07:06 14,2 C 12,9 C 99 % 1014,0 hPa 0,0 l/m 0 min 0 min 0,0 UV-I 18 W/m 12,9 km/h (3 Bft)
29.06.2013 07:08 14,2 C 13,4 C 99 % 1014,0 hPa 0,0 l/m 0 min 0 min 0,0 UV-I 19 W/m 10,3 km/h (2 Bft)
29.06.2013 07:10 14,2 C 12,9 C 99 % 1014,1 hPa 0,0 l/m 0 min 0 min 0,0 UV-I 28 W/m 10,3 km/h (2 Bft)
29.06.2013 07:12 14,2 C 12,9 C 99 % 1014,2 hPa 0,0 l/m 0 min 0 min 0,0 UV-I 28 W/m 12,9 km/h (3 Bft)
29.06.2013 07:14 14,2 C 12,9 C 99 % 1014,2 hPa 0,0 l/m 0 min 0 min 0,0 UV-I 35 W/m 10,3 km/h (2 Bft)
29.06.2013 07:16 14,1 C 12,9 C 99 % 1014,3 hPa 0,0 l/m 0 min 0 min 0,0 UV-I 37 W/m 12,9 km/h (3 Bft)
29.06.2013 07:18 14,1 C 13,4 C 99 % 1014,3 hPa 0,0 l/m 0 min 0 min 0,0 UV-I 37 W/m 0,0 km/h (0 Bft)
29.06.2013 07:20 14,1 C 13,4 C 99 % 1014,3 hPa 0,0 l/m 0 min 0 min 0,0 UV-I 54 W/m 10,3 km/h (2 Bft)
29.06.2013 07:22 14,1 C 13,4 C 99 % 1014,3 hPa 0,0 l/m 0 min 0 min 0,0 UV-I 42 W/m 12,9 km/h (3 Bft)
29.06.2013 07:24 14,1 C 13,4 C 99 % 1014,4 hPa 0,0 l/m 0 min 0 min 0,0 UV-I 53 W/m 7,7 km/h (2 Bft)
29.06.2013 07:26 14,1 C 13,4 C 99 % 1014,4 hPa 0,2 l/m 0 min 0 min 0,0 UV-I 62 W/m 7,7 km/h (2 Bft)
29.06.2013 07:28 14,1 C 13,4 C 99 % 1014,4 hPa 0,0 l/m 0 min 0 min 0,0 UV-I 69 W/m 0,0 km/h (0 Bft)
29.06.2013 07:30 14,2 C 13,4 C 99 % 1014,4 hPa 0,0 l/m 0 min 0 min 0,0 UV-I 67 W/m 10,3 km/h (2 Bft)
29.06.2013 07:32 14,2 C 13,4 C 99 % 1014,4 hPa 0,0 l/m 0 min 0 min 0,0 UV-I 58 W/m 0,0 km/h (0 Bft)
29.06.2013 07:34 14,2 C 13,4 C 99 % 1014,4 hPa 0,0 l/m 0 min 0 min 0,0 UV-I 58 W/m 7,7 km/h (2 Bft)
29.06.2013 07:36 14,2 C 13,4 C 99 % 1014,4 hPa 0,0 l/m 0 min 0 min 0,0 UV-I 44 W/m 2,6 km/h (1 Bft)
29.06.2013 07:38 14,2 C 13,4 C 99 % 1014,4 hPa 0,0 l/m 0 min 0 min 0,0 UV-I 47 W/m 0,0 km/h (0 Bft)
29.06.2013 07:40 14,2 C 13,4 C 99 % 1014,4 hPa 0,0 l/m 0 min 0 min 0,0 UV-I 44 W/m 10,3 km/h (2 Bft)
29.06.2013 07:42 14,2 C 13,4 C 99 % 1014,4 hPa 0,0 l/m 0 min 0 min 0,0 UV-I 35 W/m 5,1 km/h (1 Bft)
29.06.2013 07:44 14,2 C 13,4 C 99 % 1014,5 hPa 0,0 l/m 0 min 0 min 0,0 UV-I 26 W/m 5,1 km/h (1 Bft)
29.06.2013 07:46 14,2 C 13,4 C 99 % 1014,5 hPa 0,0 l/m 0 min 2 min 0,0 UV-I 32 W/m 0,0 km/h (0 Bft)
29.06.2013 07:48 14,2 C 13,4 C 99 % 1014,5 hPa 0,0 l/m 0 min 2 min 0,0 UV-I 60 W/m 0,0 km/h (0 Bft)
29.06.2013 07:50 14,2 C 13,4 C 99 % 1014,5 hPa 0,0 l/m 0 min 0 min 0,0 UV-I 91 W/m 5,1 km/h (1 Bft)
29.06.2013 07:52 14,2 C 13,4 C 99 % 1014,5 hPa 0,0 l/m 0 min 0 min 0,0 UV-I 86 W/m 0,0 km/h (0 Bft)
29.06.2013 07:54 14,3 C 13,4 C 99 % 1014,6 hPa 0,0 l/m 0 min 0 min 0,0 UV-I 77 W/m 10,3 km/h (2 Bft)
29.06.2013 07:56 14,3 C 13,4 C 99 % 1014,7 hPa 0,0 l/m 0 min 0 min 0,0 UV-I 76 W/m 10,3 km/h (2 Bft)
29.06.2013 07:58 14,3 C 13,4 C 99 % 1014,7 hPa 0,0 l/m 0 min 0 min 0,0 UV-I 107 W/m 5,1 km/h (1 Bft)
29.06.2013 08:00 14,3 C 13,4 C 99 % 1014,7 hPa 0,0 l/m 0 min 0 min 0,0 UV-I 109 W/m 7,7 km/h (2 Bft)
29.06.2013 08:02 14,3 C 13,4 C 99 % 1014,7 hPa 0,0 l/m 0 min 0 min 0,0 UV-I 88 W/m 0,0 km/h (0 Bft)
29.06.2013 08:06 14,3 C 13,4 C 99 % 1014,8 hPa 0,0 l/m 0 min 0 min 0,0 UV-I 79 W/m 10,3 km/h (2 Bft)
29.06.2013 08:08 14,4 C 13,4 C 99 % 1014,8 hPa 0,0 l/m 0 min 0 min 0,0 UV-I 86 W/m 0,0 km/h (0 Bft)
29.06.2013 08:10 14,4 C 14,0 C 99 % 1014,8 hPa 0,0 l/m 0 min 0 min 0,0 UV-I 88 W/m 2,6 km/h (1 Bft)
29.06.2013 08:12 14,4 C 13,4 C 99 % 1014,8 hPa 0,0 l/m 0 min 0 min 0,0 UV-I 77 W/m 5,1 km/h (1 Bft)
29.06.2013 08:14 14,4 C 13,4 C 99 % 1014,8 hPa 0,0 l/m 0 min 0 min 0,0 UV-I 77 W/m 5,1 km/h (1 Bft)
29.06.2013 08:16 14,4 C 13,4 C 99 % 1014,9 hPa 0,0 l/m 0 min 0 min 0,0 UV-I 88 W/m 0,0 km/h (0 Bft)
29.06.2013 08:18 14,4 C 14,0 C 99 % 1014,9 hPa 0,0 l/m 0 min 0 min 0,0 UV-I 86 W/m 7,7 km/h (2 Bft)
29.06.2013 08:20 14,5 C 13,4 C 99 % 1014,9 hPa 0,0 l/m 0 min 0 min 0,0 UV-I 56 W/m 5,1 km/h (1 Bft)
29.06.2013 08:22 14,5 C 13,4 C 99 % 1014,9 hPa 0,0 l/m 0 min 0 min 0,0 UV-I 53 W/m 0,0 km/h (0 Bft)
29.06.2013 08:24 14,5 C 13,4 C 99 % 1015,0 hPa 0,0 l/m 0 min 0 min 0,0 UV-I 51 W/m 0,0 km/h (0 Bft)
29.06.2013 08:26 14,4 C 13,4 C 99 % 1015,0 hPa 0,0 l/m 0 min 0 min 0,0 UV-I 49 W/m 0,0 km/h (0 Bft)
29.06.2013 08:28 14,5 C 13,4 C 99 % 1015,0 hPa 0,0 l/m 0 min 0 min 0,0 UV-I 54 W/m 2,6 km/h (1 Bft)
29.06.2013 08:30 14,5 C 13,4 C 99 % 1015,0 hPa 0,0 l/m 0 min 0 min 0,0 UV-I 51 W/m 0,0 km/h (0 Bft)
29.06.2013 08:32 14,5 C 13,4 C 99 % 1015,0 hPa 0,0 l/m 0 min 0 min 0,0 UV-I 60 W/m 0,0 km/h (0 Bft)
29.06.2013 08:34 14,5 C 13,4 C 99 % 1015,0 hPa 0,0 l/m 0 min 0 min 0,0 UV-I 60 W/m 15,4 km/h (3 Bft)
29.06.2013 08:36 14,5 C 13,4 C 99 % 1015,0 hPa 0,0 l/m 0 min 0 min 0,0 UV-I 67 W/m 5,1 km/h (1 Bft)
29.06.2013 08:38 14,4 C 13,4 C 99 % 1015,0 hPa 0,0 l/m 0 min 0 min 0,0 UV-I 46 W/m 0,0 km/h (0 Bft)
29.06.2013 08:40 14,5 C 13,4 C 99 % 1015,0 hPa 0,0 l/m 0 min 0 min 0,0 UV-I 44 W/m 5,1 km/h (1 Bft)
29.06.2013 08:42 14,5 C 13,4 C 99 % 1015,1 hPa 0,0 l/m 0 min 0 min 0,0 UV-I 46 W/m 2,6 km/h (1 Bft)
29.06.2013 08:44 14,5 C 13,4 C 99 % 1015,2 hPa 0,0 l/m 0 min 0 min 0,0 UV-I 44 W/m 0,0 km/h (0 Bft)
29.06.2013 08:46 14,5 C 13,4 C 99 % 1015,2 hPa 0,0 l/m 0 min 2 min 0,0 UV-I 54 W/m 7,7 km/h (2 Bft)
29.06.2013 08:48 14,5 C 13,4 C 99 % 1015,2 hPa 0,0 l/m 0 min 2 min 0,0 UV-I 62 W/m 0,0 km/h (0 Bft)
29.06.2013 08:50 14,5 C 13,4 C 99 % 1015,2 hPa 0,0 l/m 0 min 0 min 0,0 UV-I 83 W/m 0,0 km/h (0 Bft)
29.06.2013 08:52 14,5 C 14,0 C 99 % 1015,1 hPa 0,0 l/m 0 min 0 min 0,0 UV-I 102 W/m 0,0 km/h (0 Bft)
29.06.2013 08:54 14,6 C 14,0 C 99 % 1015,2 hPa 0,0 l/m 0 min 0 min 0,0 UV-I 137 W/m 2,6 km/h (1 Bft)
29.06.2013 08:56 14,6 C 14,0 C 99 % 1015,2 hPa 0,0 l/m 0 min 0 min 0,0 UV-I 199 W/m 10,3 km/h (2 Bft)
29.06.2013 08:58 14,6 C 14,0 C 99 % 1015,3 hPa 0,0 l/m 0 min 0 min 0,0 UV-I 260 W/m 7,7 km/h (2 Bft)
29.06.2013 09:00 14,8 C 14,6 C 100 % 1015,3 hPa 0,0 l/m 0 min 0 min 0,0 UV-I 229 W/m 7,7 km/h (2 Bft)
29.06.2013 09:02 14,8 C 14,6 C 99 % 1015,4 hPa 0,0 l/m 0 min 0 min 0,0 UV-I 229 W/m 15,4 km/h (3 Bft)
29.06.2013 09:06 15,1 C 14,6 C 99 % 1015,4 hPa 0,0 l/m 0 min 0 min 0,0 UV-I 123 W/m 12,9 km/h (3 Bft)
29.06.2013 09:08 15,1 C 14,0 C 99 % 1015,4 hPa 0,0 l/m 0 min 0 min 0,0 UV-I 105 W/m 7,7 km/h (2 Bft)
29.06.2013 09:10 15,0 C 14,0 C 99 % 1015,5 hPa 0,0 l/m 0 min 0 min 0,0 UV-I 137 W/m 25,7 km/h (4 Bft)
29.06.2013 09:12 14,9 C 14,0 C 99 % 1015,5 hPa 0,0 l/m 0 min 0 min 0,0 UV-I 160 W/m 15,4 km/h (3 Bft)
29.06.2013 09:14 14,9 C 14,0 C 99 % 1015,4 hPa 0,0 l/m 0 min 0 min 0,0 UV-I 171 W/m 5,1 km/h (1 Bft)
29.06.2013 09:16 14,9 C 14,0 C 99 % 1015,6 hPa 0,0 l/m 0 min 0 min 0,0 UV-I 149 W/m 7,7 km/h (2 Bft)
29.06.2013 09:18 14,9 C 14,0 C 99 % 1015,5 hPa 0,0 l/m 0 min 0 min 0,0 UV-I 123 W/m 5,1 km/h (1 Bft)
29.06.2013 09:20 15,0 C 14,0 C 99 % 1015,6 hPa 0,0 l/m 0 min 0 min 0,0 UV-I 114 W/m 12,9 km/h (3 Bft)
29.06.2013 09:22 15,0 C 14,0 C 99 % 1015,6 hPa 0,0 l/m 0 min 0 min 0,0 UV-I 123 W/m 10,3 km/h (2 Bft)
29.06.2013 09:24 14,9 C 14,0 C 99 % 1015,7 hPa 0,0 l/m 0 min 0 min 0,0 UV-I 167 W/m 15,4 km/h (3 Bft)
29.06.2013 09:26 14,9 C 14,0 C 99 % 1015,7 hPa 0,0 l/m 0 min 0 min 0,0 UV-I 193 W/m 12,9 km/h (3 Bft)
29.06.2013 09:28 14,9 C 14,0 C 99 % 1015,7 hPa 0,0 l/m 0 min 0 min 0,0 UV-I 195 W/m 12,9 km/h (3 Bft)
29.06.2013 09:30 14,9 C 14,6 C 99 % 1015,8 hPa 0,0 l/m 0 min 0 min 0,0 UV-I 193 W/m 10,3 km/h (2 Bft)
29.06.2013 09:32 15,0 C 14,6 C 99 % 1015,8 hPa 0,0 l/m 0 min 0 min 0,5 UV-I 241 W/m 10,3 km/h (2 Bft)
29.06.2013 09:34 15,0 C 14,6 C 99 % 1015,8 hPa 0,0 l/m 0 min 0 min 0,5 UV-I 225 W/m 5,1 km/h (1 Bft)
29.06.2013 09:36 15,1 C 14,6 C 99 % 1015,9 hPa 0,0 l/m 2 min 0 min 0,9 UV-I 359 W/m 7,7 km/h (2 Bft)
29.06.2013 09:38 15,1 C 14,6 C 99 % 1015,9 hPa 0,0 l/m 0 min 0 min 0,8 UV-I 271 W/m 10,3 km/h (2 Bft)
29.06.2013 09:40 15,2 C 14,6 C 99 % 1015,8 hPa 0,0 l/m 0 min 0 min 0,8 UV-I 236 W/m 18,0 km/h (3 Bft)
29.06.2013 09:42 15,1 C 14,6 C 99 % 1015,9 hPa 0,0 l/m 0 min 0 min 0,9 UV-I 318 W/m 20,6 km/h (4 Bft)
29.06.2013 09:44 15,1 C 14,6 C 99 % 1015,9 hPa 0,0 l/m 0 min 0 min 0,6 UV-I 248 W/m 18,0 km/h (3 Bft)
29.06.2013 09:46 15,2 C 14,6 C 99 % 1016,0 hPa 0,0 l/m 0 min 0 min 0,6 UV-I 234 W/m 12,9 km/h (3 Bft)
29.06.2013 09:48 15,3 C 14,6 C 98 % 1016,0 hPa 0,0 l/m 0 min 0 min 0,6 UV-I 267 W/m 7,7 km/h (2 Bft)
29.06.2013 09:50 15,4 C 15,1 C 98 % 1016,1 hPa 0,0 l/m 0 min 0 min 0,0 UV-I 193 W/m 2,6 km/h (1 Bft)
29.06.2013 09:52 15,3 C 14,6 C 98 % 1016,1 hPa 0,0 l/m 0 min 0 min 0,0 UV-I 200 W/m 12,9 km/h (3 Bft)
29.06.2013 09:54 15,3 C 14,6 C 98 % 1016,1 hPa 0,0 l/m 0 min 0 min 0,5 UV-I 272 W/m 18,0 km/h (3 Bft)
29.06.2013 09:56 15,3 C 15,1 C 97 % 1016,1 hPa 0,0 l/m 2 min 0 min 0,5 UV-I 359 W/m 12,9 km/h (3 Bft)
29.06.2013 09:58 15,3 C 14,6 C 97 % 1016,2 hPa 0,0 l/m 0 min 0 min 0,0 UV-I 155 W/m 12,9 km/h (3 Bft)
29.06.2013 10:00 15,3 C 14,6 C 97 % 1016,2 hPa 0,0 l/m 0 min 0 min 0,0 UV-I 116 W/m 10,3 km/h (2 Bft)
29.06.2013 10:02 15,3 C 14,6 C 96 % 1016,2 hPa 0,0 l/m 0 min 0 min 0,0 UV-I 90 W/m 12,9 km/h (3 Bft)
29.06.2013 10:05 15,3 C 14,6 C 96 % 1016,2 hPa 0,0 l/m 0 min 0 min 0,0 UV-I 151 W/m 20,6 km/h (4 Bft)
29.06.2013 10:06 15,3 C 14,6 C 96 % 1016,2 hPa 0,0 l/m 0 min 0 min 0,0 UV-I 195 W/m 7,7 km/h (2 Bft)
29.06.2013 10:08 15,3 C 14,6 C 96 % 1016,3 hPa 0,0 l/m 0 min 0 min 0,8 UV-I 281 W/m 20,6 km/h (4 Bft)
29.06.2013 10:10 15,3 C 15,1 C 96 % 1016,3 hPa 0,0 l/m 2 min 0 min 1,3 UV-I 378 W/m 7,7 km/h (2 Bft)
29.06.2013 10:12 15,5 C 15,7 C 96 % 1016,3 hPa 0,0 l/m 2 min 0 min 1,6 UV-I 406 W/m 5,1 km/h (1 Bft)
29.06.2013 10:14 15,7 C 16,2 C 96 % 1016,3 hPa 0,0 l/m 2 min 0 min 1,1 UV-I 401 W/m 15,4 km/h (3 Bft)
29.06.2013 10:16 15,8 C 16,2 C 96 % 1016,4 hPa 0,0 l/m 0 min 0 min 0,6 UV-I 246 W/m 15,4 km/h (3 Bft)
29.06.2013 10:18 15,8 C 15,7 C 95 % 1016,4 hPa 0,0 l/m 0 min 0 min 0,0 UV-I 192 W/m 15,4 km/h (3 Bft)
29.06.2013 10:20 15,7 C 15,1 C 94 % 1016,4 hPa 0,0 l/m 0 min 0 min 0,0 UV-I 125 W/m 10,3 km/h (2 Bft)
29.06.2013 10:22 15,7 C 15,1 C 94 % 1016,4 hPa 0,0 l/m 0 min 0 min 0,0 UV-I 81 W/m 0,0 km/h (0 Bft)
29.06.2013 10:24 15,7 C 14,6 C 94 % 1016,5 hPa 0,0 l/m 0 min 0 min 0,0 UV-I 70 W/m 12,9 km/h (3 Bft)
29.06.2013 10:26 15,7 C 14,6 C 94 % 1016,5 hPa 0,0 l/m 0 min 0 min 0,0 UV-I 76 W/m 23,2 km/h (4 Bft)
29.06.2013 10:28 15,7 C 14,6 C 94 % 1016,6 hPa 0,0 l/m 0 min 0 min 0,0 UV-I 91 W/m 12,9 km/h (3 Bft)
29.06.2013 10:30 15,7 C 14,6 C 94 % 1016,6 hPa 0,0 l/m 0 min 0 min 0,0 UV-I 86 W/m 12,9 km/h (3 Bft)
29.06.2013 10:32 15,6 C 14,0 C 93 % 1016,6 hPa 0,0 l/m 0 min 0 min 0,0 UV-I 76 W/m 18,0 km/h (3 Bft)
29.06.2013 10:34 15,5 C 14,0 C 93 % 1016,6 hPa 0,0 l/m 0 min 0 min 0,0 UV-I 54 W/m 20,6 km/h (4 Bft)
29.06.2013 10:36 15,4 C 14,0 C 92 % 1016,7 hPa 0,0 l/m 0 min 0 min 0,0 UV-I 65 W/m 15,4 km/h (3 Bft)
29.06.2013 10:38 15,3 C 14,0 C 92 % 1016,9 hPa 0,0 l/m 0 min 2 min 0,0 UV-I 104 W/m 23,2 km/h (4 Bft)
29.06.2013 10:40 15,3 C 14,0 C 92 % 1016,8 hPa 0,0 l/m 0 min 2 min 0,0 UV-I 162 W/m 25,7 km/h (4 Bft)
29.06.2013 10:42 15,2 C 14,0 C 92 % 1016,9 hPa 0,0 l/m 0 min 0 min 0,7 UV-I 214 W/m 15,4 km/h (3 Bft)
29.06.2013 10:44 15,2 C 14,6 C 92 % 1016,9 hPa 0,0 l/m 0 min 0 min 0,8 UV-I 250 W/m 15,4 km/h (3 Bft)
29.06.2013 10:46 15,2 C 14,6 C 92 % 1016,9 hPa 0,0 l/m 0 min 0 min 0,6 UV-I 207 W/m 7,7 km/h (2 Bft)
29.06.2013 10:48 15,2 C 14,6 C 92 % 1017,0 hPa 0,0 l/m 0 min 0 min 0,5 UV-I 195 W/m 15,4 km/h (3 Bft)
29.06.2013 10:50 15,2 C 14,6 C 92 % 1017,0 hPa 0,0 l/m 0 min 0 min 0,0 UV-I 178 W/m 18,0 km/h (3 Bft)
29.06.2013 10:52 15,2 C 14,6 C 92 % 1017,1 hPa 0,0 l/m 0 min 0 min 0,0 UV-I 158 W/m 15,4 km/h (3 Bft)
29.06.2013 10:54 15,2 C 14,6 C 92 % 1017,1 hPa 0,0 l/m 0 min 0 min 0,0 UV-I 167 W/m 18,0 km/h (3 Bft)
29.06.2013 10:56 15,2 C 14,6 C 92 % 1017,1 hPa 0,0 l/m 0 min 0 min 0,5 UV-I 179 W/m 23,2 km/h (4 Bft)
29.06.2013 10:58 15,1 C 14,6 C 92 % 1017,2 hPa 0,0 l/m 0 min 0 min 0,6 UV-I 200 W/m 23,2 km/h (4 Bft)
29.06.2013 11:00 15,1 C 14,6 C 92 % 1017,1 hPa 0,0 l/m 0 min 0 min 0,7 UV-I 221 W/m 15,4 km/h (3 Bft)
29.06.2013 11:02 15,1 C 14,6 C 92 % 1017,1 hPa 0,0 l/m 0 min 0 min 0,8 UV-I 243 W/m 15,4 km/h (3 Bft)
29.06.2013 11:05 15,2 C 15,1 C 91 % 1017,2 hPa 0,0 l/m 0 min 0 min 1,4 UV-I 338 W/m 18,0 km/h (3 Bft)
29.06.2013 11:06 15,2 C 15,7 C 92 % 1017,2 hPa 0,0 l/m 0 min 0 min 1,5 UV-I 355 W/m 18,0 km/h (3 Bft)
29.06.2013 11:08 15,4 C 15,7 C 92 % 1017,2 hPa 0,0 l/m 0 min 0 min 1,7 UV-I 399 W/m 20,6 km/h (4 Bft)
29.06.2013 11:10 15,5 C 15,7 C 92 % 1017,4 hPa 0,0 l/m 2 min 0 min 2,0 UV-I 415 W/m 20,6 km/h (4 Bft)
29.06.2013 11:12 15,7 C 16,2 C 91 % 1017,3 hPa 0,0 l/m 0 min 0 min 1,8 UV-I 371 W/m 7,7 km/h (2 Bft)
29.06.2013 11:14 15,7 C 16,2 C 90 % 1017,3 hPa 0,0 l/m 2 min 0 min 2,5 UV-I 548 W/m 18,0 km/h (3 Bft)
29.06.2013 11:16 15,9 C 16,8 C 90 % 1017,3 hPa 0,0 l/m 2 min 0 min 2,5 UV-I 566 W/m 18,0 km/h (3 Bft)
29.06.2013 11:18 16,1 C 17,3 C 89 % 1017,3 hPa 0,0 l/m 2 min 0 min 2,2 UV-I 587 W/m 25,7 km/h (4 Bft)
29.06.2013 11:20 16,1 C 16,8 C 88 % 1017,5 hPa 0,0 l/m 0 min 0 min 1,7 UV-I 369 W/m 18,0 km/h (3 Bft)
29.06.2013 11:22 16,2 C 16,8 C 88 % 1017,4 hPa 0,0 l/m 2 min 0 min 2,1 UV-I 443 W/m 10,3 km/h (2 Bft)
29.06.2013 11:24 16,2 C 16,8 C 87 % 1017,4 hPa 0,0 l/m 0 min 0 min 2,0 UV-I 380 W/m 18,0 km/h (3 Bft)
29.06.2013 11:26 16,2 C 16,8 C 87 % 1017,4 hPa 0,0 l/m 2 min 0 min 2,3 UV-I 429 W/m 12,9 km/h (3 Bft)
29.06.2013 11:28 16,3 C 17,3 C 87 % 1017,4 hPa 0,0 l/m 2 min 0 min 2,1 UV-I 524 W/m 12,9 km/h (3 Bft)
29.06.2013 11:30 16,4 C 17,9 C 87 % 1017,4 hPa 0,0 l/m 2 min 0 min 2,5 UV-I 524 W/m 20,6 km/h (4 Bft)
29.06.2013 11:32 16,4 C 17,3 C 85 % 1017,5 hPa 0,0 l/m 0 min 0 min 0,8 UV-I 248 W/m 25,7 km/h (4 Bft)
29.06.2013 11:34 16,4 C 16,2 C 84 % 1017,5 hPa 0,0 l/m 0 min 0 min 0,0 UV-I 167 W/m 18,0 km/h (3 Bft)
29.06.2013 11:36 16,4 C 16,2 C 85 % 1017,5 hPa 0,0 l/m 0 min 0 min 0,0 UV-I 128 W/m 7,7 km/h (2 Bft)
29.06.2013 11:38 16,4 C 15,7 C 85 % 1017,5 hPa 0,0 l/m 0 min 0 min 0,0 UV-I 105 W/m 7,7 km/h (2 Bft)
29.06.2013 11:40 16,4 C 15,7 C 86 % 1017,7 hPa 0,0 l/m 0 min 0 min 0,0 UV-I 134 W/m 20,6 km/h (4 Bft)
29.06.2013 11:42 16,4 C 15,7 C 86 % 1017,6 hPa 0,0 l/m 0 min 0 min 0,5 UV-I 179 W/m 10,3 km/h (2 Bft)
29.06.2013 11:44 16,3 C 15,7 C 86 % 1017,7 hPa 0,0 l/m 0 min 0 min 1,5 UV-I 332 W/m 20,6 km/h (4 Bft)
29.06.2013 11:46 16,3 C 16,2 C 86 % 1017,7 hPa 0,0 l/m 0 min 0 min 3,3 UV-I 352 W/m 10,3 km/h (2 Bft)
29.06.2013 11:48 16,4 C 17,3 C 86 % 1017,7 hPa 0,0 l/m 2 min 0 min 4,6 UV-I 912 W/m 12,9 km/h (3 Bft)
29.06.2013 11:50 16,8 C 19,0 C 88 % 1017,7 hPa 0,0 l/m 2 min 0 min 4,7 UV-I 1004 W/m 12,9 km/h (3 Bft)
29.06.2013 11:52 17,3 C 20,1 C 87 % 1017,7 hPa 0,0 l/m 2 min 0 min 4,6 UV-I 953 W/m 7,7 km/h (2 Bft)
29.06.2013 11:54 17,6 C 19,6 C 84 % 1017,7 hPa 0,0 l/m 2 min 0 min 2,2 UV-I 953 W/m 28,3 km/h (4 Bft)
29.06.2013 11:56 17,6 C 19,0 C 82 % 1017,8 hPa 0,0 l/m 0 min 0 min 1,2 UV-I 264 W/m 12,9 km/h (3 Bft)
29.06.2013 11:58 17,4 C 17,9 C 81 % 1017,8 hPa 0,0 l/m 0 min 0 min 0,0 UV-I 153 W/m 18,0 km/h (3 Bft)
29.06.2013 12:00 17,2 C 16,8 C 81 % 1017,7 hPa 0,0 l/m 0 min 0 min 0,0 UV-I 120 W/m 12,9 km/h (3 Bft)
29.06.2013 12:02 17,0 C 16,2 C 81 % 1017,8 hPa 0,0 l/m 0 min 0 min 0,0 UV-I 123 W/m 15,4 km/h (3 Bft)
29.06.2013 12:05 16,7 C 15,7 C 81 % 1017,9 hPa 0,0 l/m 0 min 0 min 0,0 UV-I 144 W/m 20,6 km/h (4 Bft)
29.06.2013 12:06 16,7 C 15,7 C 81 % 1017,9 hPa 0,0 l/m 0 min 0 min 0,6 UV-I 144 W/m 23,2 km/h (4 Bft)
29.06.2013 12:08 16,4 C 15,7 C 83 % 1018,0 hPa 0,0 l/m 0 min 0 min 1,3 UV-I 279 W/m 18,0 km/h (3 Bft)
29.06.2013 12:10 16,3 C 16,2 C 84 % 1018,0 hPa 0,0 l/m 0 min 0 min 1,6 UV-I 301 W/m 7,7 km/h (2 Bft)
29.06.2013 12:12 16,2 C 16,2 C 84 % 1018,0 hPa 0,0 l/m 0 min 0 min 2,2 UV-I 380 W/m 18,0 km/h (3 Bft)
29.06.2013 12:14 16,2 C 16,8 C 83 % 1018,0 hPa 0,0 l/m 2 min 0 min 3,1 UV-I 522 W/m 12,9 km/h (3 Bft)
29.06.2013 12:16 16,3 C 17,3 C 84 % 1018,1 hPa 0,0 l/m 2 min 0 min 3,0 UV-I 526 W/m 15,4 km/h (3 Bft)
29.06.2013 12:18 16,4 C 17,3 C 83 % 1018,2 hPa 0,0 l/m 2 min 0 min 3,0 UV-I 548 W/m 23,2 km/h (4 Bft)
29.06.2013 12:20 16,6 C 17,9 C 84 % 1018,1 hPa 0,0 l/m 0 min 0 min 2,3 UV-I 397 W/m 18,0 km/h (3 Bft)
29.06.2013 12:22 16,7 C 17,9 C 83 % 1018,2 hPa 0,0 l/m 0 min 0 min 2,6 UV-I 446 W/m 20,6 km/h (4 Bft)
29.06.2013 12:24 16,8 C 17,9 C 80 % 1018,2 hPa 0,0 l/m 0 min 0 min 4,8 UV-I 450 W/m 30,9 km/h (5 Bft)
29.06.2013 12:26 16,9 C 19,0 C 79 % 1018,2 hPa 0,0 l/m 2 min 0 min 4,3 UV-I 765 W/m 20,6 km/h (4 Bft)
29.06.2013 12:28 17,2 C 20,1 C 79 % 1018,2 hPa 0,0 l/m 2 min 0 min 4,3 UV-I 798 W/m 15,4 km/h (3 Bft)
29.06.2013 12:30 17,5 C 20,7 C 79 % 1018,3 hPa 0,0 l/m 2 min 0 min 4,3 UV-I 765 W/m 33,5 km/h (5 Bft)
29.06.2013 12:32 17,6 C 20,7 C 75 % 1018,3 hPa 0,0 l/m 2 min 0 min 4,2 UV-I 744 W/m 23,2 km/h (4 Bft)
29.06.2013 12:34 17,7 C 20,7 C 76 % 1018,3 hPa 0,0 l/m 2 min 0 min 3,5 UV-I 582 W/m 30,9 km/h (5 Bft)
29.06.2013 12:36 17,7 C 20,1 C 75 % 1018,4 hPa 0,0 l/m 2 min 0 min 4,0 UV-I 582 W/m 25,7 km/h (4 Bft)
29.06.2013 12:38 17,6 C 20,1 C 74 % 1018,4 hPa 0,0 l/m 2 min 0 min 2,7 UV-I 582 W/m 23,2 km/h (4 Bft)
29.06.2013 12:40 17,5 C 19,0 C 76 % 1018,4 hPa 0,0 l/m 0 min 0 min 2,2 UV-I 367 W/m 20,6 km/h (4 Bft)
29.06.2013 12:42 17,5 C 18,4 C 77 % 1018,5 hPa 0,0 l/m 0 min 0 min 2,5 UV-I 408 W/m 20,6 km/h (4 Bft)
29.06.2013 12:44 17,6 C 19,0 C 78 % 1018,5 hPa 0,0 l/m 0 min 0 min 3,4 UV-I 452 W/m 5,1 km/h (1 Bft)
29.06.2013 12:46 17,6 C 19,0 C 76 % 1018,5 hPa 0,0 l/m 0 min 0 min 2,8 UV-I 394 W/m 18,0 km/h (3 Bft)
29.06.2013 12:48 17,5 C 19,6 C 77 % 1018,6 hPa 0,0 l/m 2 min 0 min 4,4 UV-I 861 W/m 18,0 km/h (3 Bft)
29.06.2013 12:50 17,6 C 20,7 C 78 % 1018,6 hPa 0,0 l/m 2 min 0 min 4,8 UV-I 810 W/m 23,2 km/h (4 Bft)
29.06.2013 12:52 17,8 C 20,7 C 75 % 1018,6 hPa 0,0 l/m 2 min 0 min 4,0 UV-I 810 W/m 23,2 km/h (4 Bft)
29.06.2013 12:54 17,8 C 19,6 C 74 % 1018,6 hPa 0,0 l/m 2 min 0 min 3,3 UV-I 738 W/m 28,3 km/h (4 Bft)
29.06.2013 12:56 17,7 C 19,0 C 74 % 1018,6 hPa 0,0 l/m 2 min 0 min 4,0 UV-I 738 W/m 30,9 km/h (5 Bft)
29.06.2013 12:58 17,7 C 20,1 C 75 % 1018,6 hPa 0,0 l/m 2 min 0 min 4,7 UV-I 738 W/m 20,6 km/h (4 Bft)
29.06.2013 13:00 17,8 C 21,2 C 75 % 1018,6 hPa 0,0 l/m 2 min 0 min 3,4 UV-I 861 W/m 15,4 km/h (3 Bft)
29.06.2013 13:02 18,2 C 21,2 C 76 % 1018,6 hPa 0,0 l/m 2 min 0 min 3,8 UV-I 861 W/m 20,6 km/h (4 Bft)
29.06.2013 13:05 18,1 C 19,6 C 73 % 1018,7 hPa 0,0 l/m 2 min 0 min 2,7 UV-I 861 W/m 23,2 km/h (4 Bft)
29.06.2013 13:06 17,9 C 19,0 C 72 % 1018,7 hPa 0,0 l/m 0 min 0 min 2,4 UV-I 390 W/m 20,6 km/h (4 Bft)
29.06.2013 13:08 17,8 C 18,4 C 74 % 1018,7 hPa 0,0 l/m 0 min 0 min 2,5 UV-I 422 W/m 23,2 km/h (4 Bft)
29.06.2013 13:10 17,7 C 19,0 C 76 % 1018,6 hPa 0,0 l/m 0 min 0 min 2,7 UV-I 396 W/m 18,0 km/h (3 Bft)
29.06.2013 13:12 17,8 C 19,0 C 74 % 1018,7 hPa 0,0 l/m 0 min 0 min 2,8 UV-I 454 W/m 25,7 km/h (4 Bft)
29.06.2013 13:14 17,8 C 21,2 C 74 % 1018,8 hPa 0,0 l/m 2 min 0 min 2,9 UV-I 967 W/m 25,7 km/h (4 Bft)
29.06.2013 13:16 18,0 C 22,3 C 74 % 1018,8 hPa 0,0 l/m 2 min 0 min 2,9 UV-I 896 W/m 23,2 km/h (4 Bft)
29.06.2013 13:18 18,3 C 22,9 C 74 % 1018,9 hPa 0,0 l/m 2 min 0 min 3,0 UV-I 882 W/m 25,7 km/h (4 Bft)
29.06.2013 13:20 18,6 C 22,3 C 76 % 1018,9 hPa 0,0 l/m 2 min 0 min 2,5 UV-I 791 W/m 12,9 km/h (3 Bft)
29.06.2013 13:22 18,6 C 21,8 C 74 % 1018,9 hPa 0,0 l/m 0 min 0 min 2,5 UV-I 413 W/m 18,0 km/h (3 Bft)
29.06.2013 13:24 18,5 C 20,1 C 74 % 1018,9 hPa 0,0 l/m 0 min 0 min 2,2 UV-I 371 W/m 20,6 km/h (4 Bft)
29.06.2013 13:26 18,4 C 20,1 C 73 % 1018,9 hPa 0,0 l/m 0 min 0 min 2,2 UV-I 410 W/m 7,7 km/h (2 Bft)
29.06.2013 13:28 18,3 C 19,0 C 73 % 1018,9 hPa 0,0 l/m 0 min 0 min 2,1 UV-I 315 W/m 12,9 km/h (3 Bft)
29.06.2013 13:30 18,2 C 19,6 C 73 % 1018,9 hPa 0,0 l/m 0 min 0 min 2,3 UV-I 360 W/m 12,9 km/h (3 Bft)
29.06.2013 13:32 18,1 C 19,0 C 74 % 1019,0 hPa 0,0 l/m 0 min 0 min 1,2 UV-I 269 W/m 23,2 km/h (4 Bft)
29.06.2013 13:34 17,8 C 17,9 C 72 % 1019,1 hPa 0,0 l/m 0 min 0 min 1,3 UV-I 269 W/m 28,3 km/h (4 Bft)
29.06.2013 13:36 17,6 C 17,3 C 72 % 1019,0 hPa 0,0 l/m 0 min 0 min 1,8 UV-I 302 W/m 18,0 km/h (3 Bft)
29.06.2013 13:38 17,5 C 17,9 C 74 % 1019,0 hPa 0,0 l/m 0 min 0 min 1,7 UV-I 339 W/m 12,9 km/h (3 Bft)
29.06.2013 13:40 17,6 C 17,9 C 74 % 1019,0 hPa 0,0 l/m 0 min 0 min 1,7 UV-I 290 W/m 15,4 km/h (3 Bft)
29.06.2013 13:42 17,6 C 17,9 C 74 % 1019,1 hPa 0,0 l/m 0 min 0 min 2,5 UV-I 385 W/m 15,4 km/h (3 Bft)
29.06.2013 13:44 17,6 C 19,0 C 73 % 1019,1 hPa 0,0 l/m 2 min 0 min 2,8 UV-I 772 W/m 15,4 km/h (3 Bft)
29.06.2013 13:46 17,9 C 19,6 C 72 % 1019,2 hPa 0,0 l/m 2 min 0 min 3,1 UV-I 717 W/m 18,0 km/h (3 Bft)
29.06.2013 13:48 18,1 C 19,0 C 69 % 1019,2 hPa 0,0 l/m 2 min 0 min 3,4 UV-I 826 W/m 23,2 km/h (4 Bft)
29.06.2013 13:50 18,2 C 19,0 C 69 % 1019,2 hPa 0,0 l/m 2 min 0 min 3,7 UV-I 835 W/m 23,2 km/h (4 Bft)
29.06.2013 13:52 18,3 C 19,0 C 69 % 1019,2 hPa 0,0 l/m 2 min 0 min 4,0 UV-I 991 W/m 33,5 km/h (5 Bft)
29.06.2013 13:54 18,3 C 19,0 C 67 % 1019,2 hPa 0,0 l/m 2 min 0 min 4,8 UV-I 991 W/m 28,3 km/h (4 Bft)
29.06.2013 13:56 18,4 C 19,6 C 68 % 1019,3 hPa 0,0 l/m 2 min 0 min 3,1 UV-I 1146 W/m 25,7 km/h (4 Bft)
29.06.2013 13:58 18,3 C 19,0 C 67 % 1019,3 hPa 0,0 l/m 2 min 0 min 2,2 UV-I 543 W/m 18,0 km/h (3 Bft)
29.06.2013 14:00 18,1 C 18,4 C 68 % 1019,3 hPa 0,0 l/m 0 min 0 min 2,6 UV-I 383 W/m 25,7 km/h (4 Bft)
29.06.2013 14:02 18,0 C 18,4 C 70 % 1019,3 hPa 0,0 l/m 0 min 0 min 2,6 UV-I 383 W/m 15,4 km/h (3 Bft)
29.06.2013 14:06 18,4 C 19,0 C 71 % 1019,4 hPa 0,0 l/m 2 min 0 min 4,9 UV-I 865 W/m 20,6 km/h (4 Bft)
29.06.2013 14:08 18,6 C 19,6 C 70 % 1019,5 hPa 0,0 l/m 2 min 0 min 5,4 UV-I 865 W/m 23,2 km/h (4 Bft)
29.06.2013 14:10 18,7 C 19,0 C 67 % 1019,4 hPa 0,0 l/m 2 min 0 min 4,0 UV-I 865 W/m 28,3 km/h (4 Bft)
29.06.2013 14:12 18,6 C 18,4 C 66 % 1019,5 hPa 0,0 l/m 2 min 0 min 3,0 UV-I 865 W/m 25,7 km/h (4 Bft)
29.06.2013 14:14 18,3 C 17,9 C 64 % 1019,6 hPa 0,0 l/m 0 min 0 min 4,7 UV-I 420 W/m 41,2 km/h (6 Bft)
29.06.2013 14:16 18,1 C 18,4 C 66 % 1019,7 hPa 0,0 l/m 0 min 0 min 5,6 UV-I 420 W/m 28,3 km/h (4 Bft)
29.06.2013 14:17 18,1 C 18,4 C 66 % 1019,7 hPa 0,0 l/m 0 min 0 min 5,7 UV-I 420 W/m 33,5 km/h (5 Bft)
29.06.2013 14:18 17,9 C 18,4 C 65 % 1019,7 hPa 0,0 l/m 0 min 0 min 3,9 UV-I 420 W/m 23,2 km/h (4 Bft)
29.06.2013 14:19 17,9 C 18,4 C 66 % 1019,7 hPa 0,0 l/m 0 min 0 min 4,3 UV-I 420 W/m 25,7 km/h (4 Bft)
29.06.2013 14:20 17,9 C 18,4 C 67 % 1019,7 hPa 0,0 l/m 0 min 0 min 3,7 UV-I 420 W/m 23,2 km/h (4 Bft)
29.06.2013 14:21 17,9 C 18,4 C 67 % 1019,7 hPa 0,0 l/m 1 min 0 min 3,3 UV-I 508 W/m 23,2 km/h (4 Bft)
29.06.2013 14:22 17,9 C 18,4 C 68 % 1019,7 hPa 0,0 l/m 1 min 0 min 4,3 UV-I 687 W/m 12,9 km/h (3 Bft)
29.06.2013 14:23 17,9 C 19,0 C 70 % 1019,7 hPa 0,0 l/m 1 min 0 min 4,4 UV-I 687 W/m 12,9 km/h (3 Bft)
29.06.2013 14:24 18,1 C 19,0 C 69 % 1019,6 hPa 0,0 l/m 0 min 0 min 2,8 UV-I 390 W/m 18,0 km/h (3 Bft)
29.06.2013 14:25 18,1 C 19,0 C 69 % 1019,7 hPa 0,0 l/m 0 min 0 min 2,9 UV-I 403 W/m 23,2 km/h (4 Bft)
29.06.2013 14:26 18,1 C 19,0 C 69 % 1019,7 hPa 0,0 l/m 0 min 0 min 3,3 UV-I 403 W/m 10,3 km/h (2 Bft)
29.06.2013 14:27 18,1 C 19,0 C 68 % 1019,7 hPa 0,0 l/m 1 min 0 min 3,3 UV-I 536 W/m 23,2 km/h (4 Bft)
29.06.2013 14:28 18,1 C 18,4 C 69 % 1019,7 hPa 0,0 l/m 1 min 0 min 3,4 UV-I 582 W/m 20,6 km/h (4 Bft)
29.06.2013 14:29 18,1 C 19,0 C 69 % 1019,7 hPa 0,0 l/m 1 min 0 min 5,5 UV-I 582 W/m 12,9 km/h (3 Bft)
29.06.2013 14:30 18,2 C 19,6 C 71 % 1019,7 hPa 0,0 l/m 1 min 0 min 5,1 UV-I 582 W/m 15,4 km/h (3 Bft)
29.06.2013 14:31 18,4 C 19,6 C 70 % 1019,7 hPa 0,0 l/m 1 min 0 min 3,3 UV-I 582 W/m 12,9 km/h (3 Bft)
29.06.2013 14:32 18,6 C 19,6 C 69 % 1019,7 hPa 0,0 l/m 1 min 0 min 3,3 UV-I 582 W/m 5,1 km/h (1 Bft)
29.06.2013 14:34 18,9 C 20,1 C 68 % 1019,7 hPa 0,0 l/m 2 min 0 min 4,1 UV-I 582 W/m 10,3 km/h (2 Bft)
29.06.2013 14:36 19,0 C 19,6 C 67 % 1019,8 hPa 0,0 l/m 0 min 0 min 3,0 UV-I 383 W/m 30,9 km/h (5 Bft)
29.06.2013 14:38 18,7 C 19,0 C 64 % 1019,8 hPa 0,0 l/m 2 min 0 min 4,2 UV-I 761 W/m 23,2 km/h (4 Bft)
29.06.2013 14:40 18,6 C 19,0 C 66 % 1019,9 hPa 0,0 l/m 2 min 0 min 5,4 UV-I 898 W/m 25,7 km/h (4 Bft)
29.06.2013 14:42 18,6 C 19,0 C 64 % 1019,9 hPa 0,0 l/m 2 min 0 min 5,2 UV-I 923 W/m 18,0 km/h (3 Bft)
29.06.2013 14:44 18,7 C 19,0 C 64 % 1019,9 hPa 0,0 l/m 2 min 0 min 5,1 UV-I 937 W/m 20,6 km/h (4 Bft)
29.06.2013 14:46 18,8 C 19,6 C 64 % 1019,9 hPa 0,0 l/m 2 min 0 min 4,7 UV-I 744 W/m 20,6 km/h (4 Bft)
29.06.2013 14:48 19,0 C 19,6 C 66 % 1019,8 hPa 0,0 l/m 2 min 0 min 4,9 UV-I 731 W/m 12,9 km/h (3 Bft)
29.06.2013 14:50 19,1 C 19,6 C 63 % 1019,9 hPa 0,0 l/m 2 min 0 min 4,9 UV-I 853 W/m 23,2 km/h (4 Bft)
29.06.2013 14:52 19,2 C 19,6 C 64 % 1020,1 hPa 0,0 l/m 2 min 0 min 5,0 UV-I 881 W/m 15,4 km/h (3 Bft)
29.06.2013 14:54 19,1 C 19,6 C 63 % 1019,9 hPa 0,0 l/m 2 min 0 min 5,1 UV-I 889 W/m 30,9 km/h (5 Bft)
29.06.2013 14:56 19,1 C 19,6 C 62 % 1019,9 hPa 0,0 l/m 2 min 0 min 4,7 UV-I 817 W/m 18,0 km/h (3 Bft)
29.06.2013 14:58 19,1 C 19,6 C 63 % 1019,9 hPa 0,0 l/m 2 min 0 min 5,0 UV-I 905 W/m 20,6 km/h (4 Bft)
29.06.2013 15:00 19,0 C 19,0 C 62 % 1020,0 hPa 0,0 l/m 2 min 0 min 4,9 UV-I 807 W/m 25,7 km/h (4 Bft)
29.06.2013 15:02 18,8 C 19,0 C 63 % 1019,9 hPa 0,0 l/m 2 min 0 min 4,3 UV-I 807 W/m 23,2 km/h (4 Bft)
29.06.2013 15:06 18,6 C 18,4 C 63 % 1019,9 hPa 0,0 l/m 2 min 0 min 4,4 UV-I 742 W/m 25,7 km/h (4 Bft)
29.06.2013 15:08 18,7 C 19,0 C 64 % 1020,0 hPa 0,0 l/m 2 min 0 min 4,7 UV-I 891 W/m 36,0 km/h (5 Bft)
29.06.2013 15:10 18,7 C 19,0 C 63 % 1019,9 hPa 0,0 l/m 2 min 0 min 2,6 UV-I 891 W/m 20,6 km/h (4 Bft)
29.06.2013 15:12 18,7 C 19,0 C 63 % 1020,0 hPa 0,0 l/m 2 min 0 min 4,4 UV-I 838 W/m 33,5 km/h (5 Bft)
29.06.2013 15:14 18,7 C 19,0 C 63 % 1020,0 hPa 0,0 l/m 2 min 0 min 4,6 UV-I 844 W/m 23,2 km/h (4 Bft)
29.06.2013 15:16 18,7 C 19,0 C 62 % 1019,9 hPa 0,0 l/m 2 min 0 min 4,1 UV-I 744 W/m 28,3 km/h (4 Bft)
29.06.2013 15:18 19,0 C 19,6 C 64 % 1019,9 hPa 0,0 l/m 2 min 0 min 4,3 UV-I 728 W/m 18,0 km/h (3 Bft)
29.06.2013 15:20 19,2 C 19,6 C 63 % 1020,0 hPa 0,0 l/m 2 min 0 min 4,3 UV-I 796 W/m 15,4 km/h (3 Bft)
29.06.2013 15:22 19,4 C 20,1 C 63 % 1019,9 hPa 0,0 l/m 2 min 0 min 4,4 UV-I 812 W/m 10,3 km/h (2 Bft)
29.06.2013 15:24 19,4 C 19,6 C 60 % 1020,0 hPa 0,0 l/m 2 min 0 min 4,3 UV-I 802 W/m 20,6 km/h (4 Bft)
29.06.2013 15:26 19,3 C 19,6 C 61 % 1020,0 hPa 0,0 l/m 2 min 0 min 4,4 UV-I 798 W/m 15,4 km/h (3 Bft)
29.06.2013 15:28 19,3 C 20,1 C 63 % 1019,9 hPa 0,0 l/m 2 min 0 min 4,2 UV-I 795 W/m 7,7 km/h (2 Bft)
29.06.2013 15:30 19,3 C 19,6 C 60 % 1019,9 hPa 0,0 l/m 2 min 0 min 3,9 UV-I 722 W/m 20,6 km/h (4 Bft)
29.06.2013 15:32 19,4 C 20,1 C 62 % 1020,0 hPa 0,0 l/m 2 min 0 min 4,1 UV-I 807 W/m 0,0 km/h (0 Bft)
29.06.2013 15:34 19,3 C 19,6 C 61 % 1020,0 hPa 0,0 l/m 2 min 0 min 4,2 UV-I 831 W/m 25,7 km/h (4 Bft)
29.06.2013 15:36 19,4 C 20,1 C 62 % 1019,9 hPa 0,0 l/m 2 min 0 min 4,2 UV-I 812 W/m 18,0 km/h (3 Bft)
29.06.2013 15:38 19,4 C 20,1 C 61 % 1020,0 hPa 0,0 l/m 2 min 0 min 4,1 UV-I 807 W/m 20,6 km/h (4 Bft)
29.06.2013 15:40 19,3 C 19,6 C 60 % 1020,0 hPa 0,0 l/m 2 min 0 min 3,8 UV-I 740 W/m 15,4 km/h (3 Bft)
29.06.2013 15:42 19,3 C 19,6 C 62 % 1020,0 hPa 0,0 l/m 2 min 0 min 3,9 UV-I 777 W/m 23,2 km/h (4 Bft)
29.06.2013 15:44 19,2 C 19,0 C 60 % 1020,1 hPa 0,0 l/m 2 min 0 min 3,9 UV-I 765 W/m 28,3 km/h (4 Bft)
29.06.2013 15:46 19,0 C 19,0 C 59 % 1020,0 hPa 0,0 l/m 2 min 0 min 4,0 UV-I 788 W/m 25,7 km/h (4 Bft)
29.06.2013 15:48 19,1 C 19,6 C 63 % 1020,0 hPa 0,0 l/m 2 min 0 min 3,8 UV-I 735 W/m 10,3 km/h (2 Bft)
29.06.2013 15:50 19,5 C 19,6 C 61 % 1020,1 hPa 0,0 l/m 2 min 0 min 3,8 UV-I 740 W/m 20,6 km/h (4 Bft)
29.06.2013 15:52 19,3 C 19,6 C 60 % 1020,1 hPa 0,0 l/m 0 min 0 min 4,0 UV-I 355 W/m 30,9 km/h (5 Bft)
29.06.2013 15:54 19,2 C 19,6 C 60 % 1020,1 hPa 0,0 l/m 0 min 0 min 3,7 UV-I 355 W/m 15,4 km/h (3 Bft)
29.06.2013 15:56 19,3 C 19,6 C 60 % 1020,2 hPa 0,0 l/m 0 min 0 min 3,3 UV-I 415 W/m 18,0 km/h (3 Bft)
29.06.2013 15:58 19,2 C 19,6 C 62 % 1020,2 hPa 0,0 l/m 0 min 0 min 2,1 UV-I 415 W/m 18,0 km/h (3 Bft)
29.06.2013 16:00 19,1 C 19,6 C 62 % 1020,3 hPa 0,0 l/m 2 min 0 min 3,7 UV-I 867 W/m 12,9 km/h (3 Bft)
29.06.2013 16:02 19,0 C 19,6 C 59 % 1020,1 hPa 0,0 l/m 2 min 0 min 3,3 UV-I 726 W/m 25,7 km/h (4 Bft)
29.06.2013 16:06 18,7 C 19,0 C 61 % 1020,1 hPa 0,0 l/m 0 min 0 min 3,2 UV-I 294 W/m 20,6 km/h (4 Bft)
29.06.2013 16:08 18,6 C 18,4 C 62 % 1020,1 hPa 0,0 l/m 0 min 0 min 1,5 UV-I 279 W/m 20,6 km/h (4 Bft)
29.06.2013 16:10 18,4 C 18,4 C 62 % 1020,3 hPa 0,0 l/m 0 min 0 min 1,4 UV-I 207 W/m 20,6 km/h (4 Bft)
29.06.2013 16:12 18,3 C 17,9 C 61 % 1020,3 hPa 0,0 l/m 0 min 0 min 1,8 UV-I 237 W/m 20,6 km/h (4 Bft)
29.06.2013 16:14 18,2 C 17,9 C 62 % 1020,3 hPa 0,0 l/m 0 min 0 min 1,9 UV-I 255 W/m 28,3 km/h (4 Bft)
29.06.2013 16:16 18,2 C 18,4 C 62 % 1020,4 hPa 0,0 l/m 0 min 0 min 3,4 UV-I 287 W/m 10,3 km/h (2 Bft)
29.06.2013 16:18 18,2 C 18,4 C 61 % 1020,3 hPa 0,0 l/m 0 min 0 min 3,3 UV-I 287 W/m 23,2 km/h (4 Bft)
29.06.2013 16:20 18,4 C 19,0 C 63 % 1020,4 hPa 0,0 l/m 0 min 0 min 1,4 UV-I 253 W/m 20,6 km/h (4 Bft)
29.06.2013 16:22 18,4 C 18,4 C 62 % 1020,3 hPa 0,0 l/m 0 min 0 min 1,4 UV-I 265 W/m 20,6 km/h (4 Bft)
29.06.2013 16:24 18,3 C 18,4 C 61 % 1020,5 hPa 0,0 l/m 0 min 0 min 1,7 UV-I 367 W/m 28,3 km/h (4 Bft)
29.06.2013 16:26 18,3 C 18,4 C 60 % 1020,4 hPa 0,0 l/m 0 min 0 min 1,3 UV-I 253 W/m 15,4 km/h (3 Bft)
29.06.2013 16:28 18,3 C 17,9 C 60 % 1020,5 hPa 0,0 l/m 0 min 0 min 1,2 UV-I 244 W/m 25,7 km/h (4 Bft)
29.06.2013 16:30 18,1 C 17,9 C 60 % 1020,5 hPa 0,0 l/m 0 min 0 min 1,3 UV-I 267 W/m 25,7 km/h (4 Bft)
29.06.2013 16:32 18,1 C 17,9 C 61 % 1020,5 hPa 0,0 l/m 0 min 0 min 2,7 UV-I 271 W/m 18,0 km/h (3 Bft)
29.06.2013 16:34 18,2 C 19,6 C 62 % 1020,5 hPa 0,0 l/m 2 min 0 min 2,9 UV-I 703 W/m 20,6 km/h (4 Bft)
29.06.2013 16:36 18,6 C 20,7 C 62 % 1020,5 hPa 0,0 l/m 2 min 0 min 2,9 UV-I 708 W/m 15,4 km/h (3 Bft)
29.06.2013 16:38 18,8 C 20,7 C 60 % 1020,4 hPa 0,0 l/m 2 min 0 min 3,0 UV-I 631 W/m 18,0 km/h (3 Bft)
29.06.2013 16:40 18,9 C 20,7 C 62 % 1020,5 hPa 0,0 l/m 2 min 0 min 2,6 UV-I 814 W/m 18,0 km/h (3 Bft)
29.06.2013 16:42 19,2 C 20,7 C 61 % 1020,4 hPa 0,0 l/m 2 min 0 min 2,9 UV-I 796 W/m 7,7 km/h (2 Bft)
29.06.2013 16:44 19,5 C 20,7 C 59 % 1020,5 hPa 0,0 l/m 2 min 0 min 2,8 UV-I 823 W/m 25,7 km/h (4 Bft)
29.06.2013 16:46 19,5 C 20,7 C 61 % 1020,6 hPa 0,0 l/m 2 min 0 min 2,4 UV-I 810 W/m 15,4 km/h (3 Bft)
29.06.2013 16:48 19,7 C 20,7 C 61 % 1020,6 hPa 0,0 l/m 2 min 0 min 2,8 UV-I 861 W/m 10,3 km/h (2 Bft)
29.06.2013 16:50 20,2 C 21,2 C 62 % 1020,6 hPa 0,0 l/m 2 min 0 min 2,6 UV-I 742 W/m 5,1 km/h (1 Bft)
29.06.2013 16:52 20,5 C 21,2 C 60 % 1020,6 hPa 0,0 l/m 2 min 0 min 2,5 UV-I 700 W/m 23,2 km/h (4 Bft)
29.06.2013 16:54 20,4 C 20,7 C 58 % 1020,7 hPa 0,0 l/m 2 min 0 min 2,5 UV-I 659 W/m 23,2 km/h (4 Bft)
29.06.2013 16:56 20,2 C 20,7 C 56 % 1020,7 hPa 0,0 l/m 2 min 0 min 2,5 UV-I 633 W/m 23,2 km/h (4 Bft)
29.06.2013 16:58 19,9 C 20,1 C 55 % 1020,5 hPa 0,0 l/m 2 min 0 min 2,6 UV-I 657 W/m 23,2 km/h (4 Bft)
29.06.2013 17:00 19,6 C 20,1 C 57 % 1020,7 hPa 0,0 l/m 2 min 0 min 2,7 UV-I 691 W/m 18,0 km/h (3 Bft)
29.06.2013 17:02 19,8 C 20,1 C 58 % 1020,6 hPa 0,0 l/m 2 min 0 min 2,5 UV-I 703 W/m 20,6 km/h (4 Bft)
29.06.2013 17:05 19,8 C 20,1 C 56 % 1020,6 hPa 0,0 l/m 2 min 0 min 1,6 UV-I 568 W/m 23,2 km/h (4 Bft)
29.06.2013 17:06 19,7 C 20,1 C 57 % 1020,6 hPa 0,0 l/m 1 min 0 min 1,6 UV-I 568 W/m 10,3 km/h (2 Bft)
29.06.2013 17:08 19,6 C 19,6 C 56 % 1020,8 hPa 0,0 l/m 2 min 0 min 2,2 UV-I 538 W/m 25,7 km/h (4 Bft)
29.06.2013 17:10 19,3 C 19,0 C 56 % 1020,8 hPa 0,0 l/m 2 min 0 min 1,9 UV-I 598 W/m 36,0 km/h (5 Bft)
29.06.2013 17:12 19,1 C 19,0 C 57 % 1020,9 hPa 0,0 l/m 2 min 0 min 2,1 UV-I 703 W/m 28,3 km/h (4 Bft)
29.06.2013 17:14 18,8 C 18,4 C 57 % 1020,9 hPa 0,0 l/m 0 min 0 min 1,6 UV-I 294 W/m 30,9 km/h (5 Bft)
29.06.2013 17:16 18,7 C 18,4 C 58 % 1020,9 hPa 0,0 l/m 2 min 0 min 2,1 UV-I 693 W/m 30,9 km/h (5 Bft)
29.06.2013 17:18 18,5 C 18,4 C 57 % 1020,9 hPa 0,0 l/m 0 min 0 min 1,2 UV-I 316 W/m 33,5 km/h (5 Bft)
29.06.2013 17:20 18,3 C 17,9 C 57 % 1021,0 hPa 0,0 l/m 0 min 0 min 1,0 UV-I 316 W/m 28,3 km/h (4 Bft)
29.06.2013 17:22 18,2 C 17,9 C 57 % 1020,9 hPa 0,0 l/m 0 min 0 min 0,9 UV-I 185 W/m 30,9 km/h (5 Bft)
29.06.2013 17:24 18,1 C 17,9 C 57 % 1020,9 hPa 0,0 l/m 0 min 0 min 1,7 UV-I 204 W/m 30,9 km/h (5 Bft)
29.06.2013 17:26 17,9 C 17,3 C 58 % 1020,9 hPa 0,0 l/m 0 min 0 min 1,0 UV-I 211 W/m 23,2 km/h (4 Bft)
29.06.2013 17:27 17,9 C 17,3 C 60 % 1020,8 hPa 0,0 l/m 0 min 0 min 1,6 UV-I 211 W/m 20,6 km/h (4 Bft)
29.06.2013 17:28 17,9 C 17,9 C 59 % 1020,8 hPa 0,0 l/m 1 min 0 min 1,6 UV-I 543 W/m 18,0 km/h (3 Bft)
29.06.2013 17:29 17,9 C 17,9 C 59 % 1021,0 hPa 0,0 l/m 1 min 0 min 1,5 UV-I 496 W/m 20,6 km/h (4 Bft)
29.06.2013 17:30 18,0 C 17,9 C 59 % 1020,9 hPa 0,0 l/m 0 min 0 min 1,0 UV-I 204 W/m 12,9 km/h (3 Bft)
29.06.2013 17:31 18,0 C 17,3 C 59 % 1021,0 hPa 0,0 l/m 0 min 0 min 1,5 UV-I 274 W/m 30,9 km/h (5 Bft)
29.06.2013 17:32 17,9 C 17,3 C 58 % 1021,0 hPa 0,0 l/m 0 min 0 min 1,6 UV-I 308 W/m 36,0 km/h (5 Bft)
29.06.2013 17:33 17,9 C 17,3 C 57 % 1020,9 hPa 0,0 l/m 0 min 0 min 1,3 UV-I 243 W/m 20,6 km/h (4 Bft)
29.06.2013 17:34 17,8 C 17,3 C 57 % 1021,0 hPa 0,0 l/m 0 min 0 min 1,3 UV-I 243 W/m 20,6 km/h (4 Bft)
29.06.2013 17:35 17,8 C 17,3 C 58 % 1020,9 hPa 0,0 l/m 1 min 0 min 0,9 UV-I 396 W/m 30,9 km/h (5 Bft)
29.06.2013 17:36 17,8 C 17,3 C 58 % 1021,2 hPa 0,0 l/m 1 min 0 min 1,3 UV-I 396 W/m 23,2 km/h (4 Bft)
29.06.2013 17:37 17,8 C 17,3 C 58 % 1021,0 hPa 0,0 l/m 1 min 0 min 1,0 UV-I 489 W/m 23,2 km/h (4 Bft)
29.06.2013 17:38 17,8 C 17,3 C 58 % 1021,0 hPa 0,0 l/m 1 min 0 min 1,0 UV-I 489 W/m 20,6 km/h (4 Bft)
29.06.2013 17:39 17,8 C 17,3 C 58 % 1021,0 hPa 0,0 l/m 0 min 0 min 1,1 UV-I 285 W/m 12,9 km/h (3 Bft)
29.06.2013 17:40 17,8 C 17,3 C 59 % 1021,2 hPa 0,0 l/m 0 min 0 min 1,4 UV-I 285 W/m 15,4 km/h (3 Bft)
29.06.2013 17:41 17,8 C 17,3 C 58 % 1021,1 hPa 0,0 l/m 1 min 0 min 1,4 UV-I 512 W/m 12,9 km/h (3 Bft)
29.06.2013 17:42 17,8 C 17,3 C 58 % 1021,1 hPa 0,0 l/m 1 min 0 min 1,4 UV-I 522 W/m 12,9 km/h (3 Bft)
29.06.2013 17:43 17,9 C 17,3 C 59 % 1021,2 hPa 0,0 l/m 1 min 0 min 1,5 UV-I 555 W/m 12,9 km/h (3 Bft)
29.06.2013 17:44 18,0 C 17,3 C 59 % 1021,1 hPa 0,0 l/m 1 min 0 min 1,4 UV-I 555 W/m 10,3 km/h (2 Bft)
29.06.2013 17:45 18,1 C 17,9 C 60 % 1021,1 hPa 0,0 l/m 1 min 0 min 1,4 UV-I 475 W/m 7,7 km/h (2 Bft)
29.06.2013 17:46 18,2 C 17,9 C 58 % 1021,2 hPa 0,0 l/m 1 min 0 min 1,4 UV-I 452 W/m 12,9 km/h (3 Bft)
29.06.2013 17:47 18,3 C 17,9 C 59 % 1021,1 hPa 0,0 l/m 1 min 0 min 1,3 UV-I 441 W/m 2,6 km/h (1 Bft)
29.06.2013 17:48 18,3 C 17,9 C 59 % 1021,1 hPa 0,0 l/m 1 min 0 min 1,3 UV-I 455 W/m 18,0 km/h (3 Bft)
29.06.2013 17:49 18,3 C 17,9 C 58 % 1021,0 hPa 0,0 l/m 1 min 0 min 1,4 UV-I 548 W/m 5,1 km/h (1 Bft)
29.06.2013 17:50 18,4 C 17,9 C 58 % 1021,2 hPa 0,0 l/m 1 min 0 min 1,2 UV-I 548 W/m 12,9 km/h (3 Bft)
29.06.2013 17:51 18,3 C 17,9 C 58 % 1021,4 hPa 0,0 l/m 1 min 0 min 1,2 UV-I 439 W/m 20,6 km/h (4 Bft)
29.06.2013 17:52 18,3 C 17,3 C 58 % 1021,4 hPa 0,0 l/m 1 min 0 min 1,3 UV-I 469 W/m 25,7 km/h (4 Bft)
29.06.2013 17:53 18,3 C 17,3 C 59 % 1021,3 hPa 0,0 l/m 1 min 0 min 1,2 UV-I 387 W/m 12,9 km/h (3 Bft)
29.06.2013 17:56 18,1 C 17,3 C 57 % 1021,3 hPa 0,0 l/m 2 min 0 min 1,3 UV-I 480 W/m 30,9 km/h (5 Bft)
29.06.2013 17:58 18,0 C 17,3 C 57 % 1021,3 hPa 0,0 l/m 2 min 0 min 1,3 UV-I 464 W/m 36,0 km/h (5 Bft)
29.06.2013 17:59 17,9 C 17,3 C 56 % 1021,4 hPa 0,0 l/m 1 min 0 min 1,2 UV-I 468 W/m 25,7 km/h (4 Bft)
29.06.2013 18:00 17,8 C 17,3 C 56 % 1021,3 hPa 0,0 l/m 1 min 0 min 1,2 UV-I 445 W/m 28,3 km/h (4 Bft)
29.06.2013 18:01 17,8 C 17,3 C 57 % 1021,4 hPa 0,0 l/m 1 min 0 min 1,2 UV-I 454 W/m 25,7 km/h (4 Bft)
29.06.2013 18:02 17,8 C 17,3 C 57 % 1021,4 hPa 0,0 l/m 1 min 0 min 1,2 UV-I 427 W/m 23,2 km/h (4 Bft)
29.06.2013 18:03 17,8 C 17,3 C 56 % 1021,4 hPa 0,0 l/m 1 min 0 min 1,1 UV-I 489 W/m 25,7 km/h (4 Bft)
29.06.2013 18:04 17,8 C 17,3 C 57 % 1021,4 hPa 0,0 l/m 1 min 0 min 1,0 UV-I 392 W/m 18,0 km/h (3 Bft)
29.06.2013 18:05 17,8 C 17,3 C 57 % 1021,5 hPa 0,0 l/m 1 min 0 min 1,0 UV-I 450 W/m 28,3 km/h (4 Bft)
29.06.2013 18:06 17,8 C 17,3 C 57 % 1021,4 hPa 0,0 l/m 1 min 0 min 1,1 UV-I 436 W/m 23,2 km/h (4 Bft)
29.06.2013 18:07 17,8 C 17,3 C 56 % 1021,5 hPa 0,0 l/m 1 min 0 min 1,0 UV-I 401 W/m 30,9 km/h (5 Bft)
29.06.2013 18:08 17,7 C 17,3 C 57 % 1021,5 hPa 0,0 l/m 1 min 0 min 0,9 UV-I 390 W/m 25,7 km/h (4 Bft)
29.06.2013 18:09 17,7 C 17,3 C 57 % 1021,5 hPa 0,0 l/m 1 min 0 min 0,9 UV-I 380 W/m 20,6 km/h (4 Bft)
29.06.2013 18:10 17,7 C 17,3 C 57 % 1021,6 hPa 0,0 l/m 1 min 0 min 0,9 UV-I 411 W/m 25,7 km/h (4 Bft)
29.06.2013 18:11 17,7 C 17,3 C 58 % 1021,5 hPa 0,0 l/m 1 min 0 min 0,9 UV-I 406 W/m 28,3 km/h (4 Bft)
29.06.2013 18:12 17,7 C 17,3 C 58 % 1021,4 hPa 0,0 l/m 1 min 0 min 0,8 UV-I 353 W/m 12,9 km/h (3 Bft)
29.06.2013 18:13 17,8 C 17,3 C 58 % 1021,4 hPa 0,0 l/m 1 min 0 min 0,7 UV-I 315 W/m 0,0 km/h (0 Bft)
29.06.2013 18:14 17,8 C 17,3 C 57 % 1021,5 hPa 0,0 l/m 0 min 0 min 0,9 UV-I 250 W/m 20,6 km/h (4 Bft)
29.06.2013 18:15 17,8 C 17,3 C 58 % 1021,5 hPa 0,0 l/m 1 min 0 min 0,7 UV-I 322 W/m 18,0 km/h (3 Bft)
29.06.2013 18:16 17,8 C 17,3 C 57 % 1021,5 hPa 0,0 l/m 0 min 0 min 0,7 UV-I 227 W/m 18,0 km/h (3 Bft)
29.06.2013 18:17 17,8 C 17,3 C 58 % 1021,6 hPa 0,0 l/m 0 min 0 min 0,7 UV-I 227 W/m 23,2 km/h (4 Bft)
29.06.2013 18:22 17,7 C 16,8 C 58 % 1021,5 hPa 0,0 l/m 0 min 0 min 0,6 UV-I 236 W/m 20,6 km/h (4 Bft)
29.06.2013 18:24 17,7 C 16,8 C 58 % 1021,6 hPa 0,0 l/m 2 min 0 min 0,6 UV-I 267 W/m 23,2 km/h (4 Bft)
29.06.2013 18:26 17,6 C 16,8 C 58 % 1021,6 hPa 0,0 l/m 2 min 0 min 0,6 UV-I 267 W/m 23,2 km/h (4 Bft)
29.06.2013 18:28 17,5 C 16,8 C 58 % 1021,6 hPa 0,0 l/m 2 min 0 min 0,6 UV-I 272 W/m 28,3 km/h (4 Bft)
29.06.2013 18:30 17,4 C 16,8 C 58 % 1021,7 hPa 0,0 l/m 2 min 0 min 0,5 UV-I 274 W/m 20,6 km/h (4 Bft)
29.06.2013 18:32 17,3 C 16,8 C 59 % 1021,6 hPa 0,0 l/m 2 min 0 min 0,6 UV-I 322 W/m 23,2 km/h (4 Bft)
29.06.2013 18:34 17,3 C 16,8 C 59 % 1021,6 hPa 0,0 l/m 2 min 0 min 0,0 UV-I 274 W/m 23,2 km/h (4 Bft)
29.06.2013 18:36 17,3 C 16,2 C 57 % 1021,6 hPa 0,0 l/m 0 min 0 min 0,5 UV-I 207 W/m 28,3 km/h (4 Bft)
29.06.2013 18:38 17,3 C 16,2 C 57 % 1021,6 hPa 0,0 l/m 0 min 0 min 0,0 UV-I 236 W/m 15,4 km/h (3 Bft)
29.06.2013 18:40 17,3 C 16,2 C 58 % 1021,7 hPa 0,0 l/m 0 min 0 min 0,0 UV-I 199 W/m 12,9 km/h (3 Bft)
29.06.2013 18:42 17,3 C 16,2 C 58 % 1021,7 hPa 0,0 l/m 0 min 0 min 0,0 UV-I 167 W/m 25,7 km/h (4 Bft)
29.06.2013 18:44 17,2 C 16,2 C 57 % 1021,6 hPa 0,0 l/m 0 min 0 min 0,0 UV-I 156 W/m 20,6 km/h (4 Bft)
29.06.2013 18:46 17,2 C 16,2 C 58 % 1021,6 hPa 0,0 l/m 0 min 0 min 0,0 UV-I 151 W/m 18,0 km/h (3 Bft)
29.06.2013 18:48 17,2 C 16,2 C 58 % 1021,6 hPa 0,0 l/m 0 min 0 min 0,0 UV-I 142 W/m 20,6 km/h (4 Bft)
29.06.2013 18:50 17,2 C 16,2 C 58 % 1021,7 hPa 0,0 l/m 0 min 0 min 0,0 UV-I 134 W/m 23,2 km/h (4 Bft)
29.06.2013 18:52 17,2 C 16,2 C 58 % 1021,6 hPa 0,0 l/m 0 min 0 min 0,0 UV-I 125 W/m 25,7 km/h (4 Bft)
29.06.2013 18:54 17,1 C 16,2 C 58 % 1021,6 hPa 0,0 l/m 0 min 0 min 0,0 UV-I 149 W/m 23,2 km/h (4 Bft)
29.06.2013 18:56 17,1 C 16,2 C 58 % 1021,7 hPa 0,0 l/m 0 min 0 min 0,0 UV-I 118 W/m 23,2 km/h (4 Bft)
29.06.2013 18:58 17,1 C 16,2 C 59 % 1021,6 hPa 0,0 l/m 0 min 0 min 0,0 UV-I 107 W/m 28,3 km/h (4 Bft)
29.06.2013 19:00 17,1 C 16,2 C 58 % 1021,6 hPa 0,0 l/m 0 min 0 min 0,0 UV-I 109 W/m 20,6 km/h (4 Bft)
29.06.2013 19:02 17,1 C 16,2 C 59 % 1021,6 hPa 0,0 l/m 0 min 0 min 0,0 UV-I 114 W/m 15,4 km/h (3 Bft)
29.06.2013 19:03 17,0 C 16,2 C 60 % 1021,6 hPa 0,0 l/m 0 min 0 min 0,0 UV-I 113 W/m 15,4 km/h (3 Bft)
29.06.2013 19:04 17,0 C 16,2 C 59 % 1021,6 hPa 0,0 l/m 0 min 0 min 0,0 UV-I 113 W/m 15,4 km/h (3 Bft)
29.06.2013 19:05 17,0 C 16,2 C 59 % 1021,6 hPa 0,0 l/m 0 min 0 min 0,0 UV-I 113 W/m 7,7 km/h (2 Bft)
29.06.2013 19:06 17,0 C 16,2 C 60 % 1021,6 hPa 0,0 l/m 0 min 0 min 0,0 UV-I 113 W/m 2,6 km/h (1 Bft)
29.06.2013 19:07 17,0 C 16,2 C 60 % 1021,6 hPa 0,0 l/m 0 min 0 min 0,0 UV-I 113 W/m 15,4 km/h (3 Bft)
29.06.2013 19:08 16,9 C 16,2 C 60 % 1021,6 hPa 0,0 l/m 0 min 0 min 0,0 UV-I 109 W/m 20,6 km/h (4 Bft)
29.06.2013 19:09 16,9 C 15,7 C 60 % 1021,6 hPa 0,0 l/m 0 min 0 min 0,0 UV-I 128 W/m 18,0 km/h (3 Bft)
29.06.2013 19:10 16,9 C 15,7 C 60 % 1021,6 hPa 0,0 l/m 0 min 0 min 0,0 UV-I 121 W/m 18,0 km/h (3 Bft)
29.06.2013 19:11 16,8 C 15,7 C 59 % 1021,6 hPa 0,0 l/m 0 min 0 min 0,0 UV-I 127 W/m 20,6 km/h (4 Bft)
29.06.2013 19:12 16,8 C 15,7 C 59 % 1021,6 hPa 0,0 l/m 0 min 0 min 0,0 UV-I 116 W/m 23,2 km/h (4 Bft)
29.06.2013 19:13 16,8 C 15,7 C 59 % 1021,7 hPa 0,0 l/m 0 min 0 min 0,0 UV-I 116 W/m 18,0 km/h (3 Bft)
29.06.2013 19:14 16,8 C 15,7 C 60 % 1021,6 hPa 0,0 l/m 0 min 0 min 0,0 UV-I 109 W/m 10,3 km/h (2 Bft)
29.06.2013 19:15 16,8 C 15,7 C 60 % 1021,7 hPa 0,0 l/m 0 min 0 min 0,0 UV-I 116 W/m 18,0 km/h (3 Bft)
29.06.2013 19:16 16,8 C 15,7 C 61 % 1021,7 hPa 0,0 l/m 0 min 0 min 0,0 UV-I 120 W/m 10,3 km/h (2 Bft)
29.06.2013 19:17 16,8 C 15,7 C 61 % 1021,7 hPa 0,0 l/m 0 min 0 min 0,0 UV-I 125 W/m 18,0 km/h (3 Bft)
29.06.2013 19:18 16,7 C 15,7 C 61 % 1021,7 hPa 0,0 l/m 0 min 0 min 0,0 UV-I 127 W/m 18,0 km/h (3 Bft)
29.06.2013 19:19 16,7 C 15,7 C 61 % 1021,6 hPa 0,0 l/m 0 min 0 min 0,0 UV-I 127 W/m 20,6 km/h (4 Bft)
29.06.2013 19:20 16,7 C 15,7 C 61 % 1021,7 hPa 0,0 l/m 0 min 0 min 0,0 UV-I 127 W/m 10,3 km/h (2 Bft)
29.06.2013 19:21 16,7 C 15,7 C 62 % 1021,7 hPa 0,0 l/m 0 min 0 min 0,0 UV-I 125 W/m 5,1 km/h (1 Bft)
29.06.2013 19:22 16,7 C 15,7 C 62 % 1021,7 hPa 0,0 l/m 0 min 0 min 0,0 UV-I 128 W/m 20,6 km/h (4 Bft)
29.06.2013 19:23 16,7 C 15,7 C 62 % 1021,7 hPa 0,0 l/m 0 min 0 min 0,0 UV-I 127 W/m 18,0 km/h (3 Bft)
29.06.2013 19:24 16,8 C 16,2 C 62 % 1021,7 hPa 0,0 l/m 0 min 0 min 0,0 UV-I 128 W/m 20,6 km/h (4 Bft)
29.06.2013 19:25 16,8 C 16,2 C 62 % 1021,8 hPa 0,0 l/m 0 min 0 min 0,0 UV-I 125 W/m 12,9 km/h (3 Bft)
29.06.2013 19:26 16,8 C 16,2 C 62 % 1021,8 hPa 0,0 l/m 0 min 0 min 0,0 UV-I 118 W/m 18,0 km/h (3 Bft)
29.06.2013 19:27 16,8 C 15,7 C 61 % 1021,8 hPa 0,0 l/m 0 min 0 min 0,0 UV-I 109 W/m 20,6 km/h (4 Bft)
29.06.2013 19:28 16,8 C 16,2 C 61 % 1021,8 hPa 0,0 l/m 0 min 0 min 0,0 UV-I 100 W/m 7,7 km/h (2 Bft)
29.06.2013 19:29 16,8 C 15,7 C 62 % 1021,8 hPa 0,0 l/m 0 min 0 min 0,0 UV-I 93 W/m 18,0 km/h (3 Bft)
29.06.2013 19:30 16,8 C 15,7 C 62 % 1021,8 hPa 0,0 l/m 0 min 0 min 0,0 UV-I 90 W/m 15,4 km/h (3 Bft)
29.06.2013 19:31 16,8 C 15,7 C 61 % 1021,8 hPa 0,0 l/m 0 min 0 min 0,0 UV-I 91 W/m 18,0 km/h (3 Bft)
29.06.2013 19:32 16,8 C 15,7 C 61 % 1021,8 hPa 0,0 l/m 0 min 0 min 0,0 UV-I 86 W/m 15,4 km/h (3 Bft)
29.06.2013 19:33 16,8 C 15,7 C 62 % 1021,8 hPa 0,0 l/m 0 min 0 min 0,0 UV-I 86 W/m 12,9 km/h (3 Bft)
29.06.2013 19:34 16,8 C 15,7 C 62 % 1021,8 hPa 0,0 l/m 0 min 0 min 0,0 UV-I 86 W/m 12,9 km/h (3 Bft)
29.06.2013 19:35 16,8 C 15,7 C 62 % 1021,9 hPa 0,0 l/m 0 min 0 min 0,0 UV-I 88 W/m 18,0 km/h (3 Bft)
29.06.2013 19:36 16,8 C 15,7 C 62 % 1021,9 hPa 0,0 l/m 0 min 0 min 0,0 UV-I 86 W/m 10,3 km/h (2 Bft)
29.06.2013 19:37 16,8 C 15,7 C 62 % 1021,9 hPa 0,0 l/m 0 min 0 min 0,0 UV-I 88 W/m 15,4 km/h (3 Bft)
29.06.2013 19:38 16,8 C 15,7 C 62 % 1021,9 hPa 0,0 l/m 0 min 0 min 0,0 UV-I 86 W/m 20,6 km/h (4 Bft)
29.06.2013 19:39 16,8 C 15,7 C 62 % 1022,0 hPa 0,0 l/m 0 min 0 min 0,0 UV-I 86 W/m 12,9 km/h (3 Bft)
29.06.2013 19:40 16,7 C 15,7 C 61 % 1022,0 hPa 0,0 l/m 0 min 0 min 0,0 UV-I 86 W/m 15,4 km/h (3 Bft)
29.06.2013 19:41 16,7 C 15,7 C 62 % 1022,0 hPa 0,0 l/m 0 min 0 min 0,0 UV-I 86 W/m 20,6 km/h (4 Bft)
29.06.2013 19:42 16,7 C 15,7 C 61 % 1022,0 hPa 0,0 l/m 0 min 0 min 0,0 UV-I 86 W/m 18,0 km/h (3 Bft)
29.06.2013 19:43 16,7 C 15,7 C 62 % 1022,0 hPa 0,0 l/m 0 min 0 min 0,0 UV-I 84 W/m 15,4 km/h (3 Bft)
29.06.2013 19:44 16,7 C 15,7 C 62 % 1022,0 hPa 0,0 l/m 0 min 0 min 0,0 UV-I 83 W/m 12,9 km/h (3 Bft)
29.06.2013 19:45 16,7 C 15,7 C 62 % 1022,0 hPa 0,0 l/m 0 min 0 min 0,0 UV-I 83 W/m 10,3 km/h (2 Bft)
29.06.2013 19:46 16,7 C 15,7 C 63 % 1021,9 hPa 0,0 l/m 0 min 0 min 0,0 UV-I 81 W/m 7,7 km/h (2 Bft)
29.06.2013 19:48 16,7 C 15,7 C 63 % 1022,0 hPa 0,0 l/m 0 min 0 min 0,0 UV-I 81 W/m 12,9 km/h (3 Bft)
29.06.2013 19:50 16,6 C 15,7 C 63 % 1022,1 hPa 0,0 l/m 0 min 0 min 0,0 UV-I 79 W/m 12,9 km/h (3 Bft)
29.06.2013 19:52 16,6 C 15,7 C 62 % 1022,1 hPa 0,0 l/m 0 min 0 min 0,0 UV-I 74 W/m 18,0 km/h (3 Bft)
29.06.2013 19:54 16,6 C 15,7 C 63 % 1022,1 hPa 0,0 l/m 0 min 0 min 0,0 UV-I 67 W/m 12,9 km/h (3 Bft)
29.06.2013 19:56 16,6 C 15,7 C 63 % 1022,1 hPa 0,0 l/m 0 min 0 min 0,0 UV-I 70 W/m 20,6 km/h (4 Bft)
29.06.2013 19:58 16,5 C 15,7 C 62 % 1022,2 hPa 0,0 l/m 0 min 0 min 0,0 UV-I 74 W/m 18,0 km/h (3 Bft)
29.06.2013 20:00 16,4 C 15,1 C 62 % 1022,1 hPa 0,0 l/m 0 min 0 min 0,0 UV-I 76 W/m 18,0 km/h (3 Bft)
29.06.2013 20:02 16,4 C 15,1 C 62 % 1022,1 hPa 0,0 l/m 0 min 0 min 0,0 UV-I 83 W/m 20,6 km/h (4 Bft)
29.06.2013 20:06 16,3 C 15,7 C 63 % 1022,2 hPa 0,0 l/m 0 min 0 min 0,0 UV-I 84 W/m 18,0 km/h (3 Bft)
29.06.2013 20:08 16,3 C 15,7 C 64 % 1022,2 hPa 0,0 l/m 0 min 0 min 0,0 UV-I 81 W/m 20,6 km/h (4 Bft)
29.06.2013 20:10 16,3 C 15,7 C 64 % 1022,2 hPa 0,0 l/m 0 min 0 min 0,0 UV-I 81 W/m 12,9 km/h (3 Bft)
29.06.2013 20:12 16,3 C 15,1 C 65 % 1022,2 hPa 0,0 l/m 0 min 0 min 0,0 UV-I 81 W/m 18,0 km/h (3 Bft)
29.06.2013 20:14 16,3 C 15,1 C 63 % 1022,4 hPa 0,0 l/m 0 min 0 min 0,0 UV-I 81 W/m 15,4 km/h (3 Bft)
29.06.2013 20:16 16,3 C 15,1 C 63 % 1022,3 hPa 0,0 l/m 0 min 0 min 0,0 UV-I 76 W/m 18,0 km/h (3 Bft)
29.06.2013 20:18 16,2 C 15,1 C 63 % 1022,3 hPa 0,0 l/m 0 min 0 min 0,0 UV-I 67 W/m 15,4 km/h (3 Bft)
29.06.2013 20:20 16,2 C 15,1 C 63 % 1022,4 hPa 0,0 l/m 0 min 0 min 0,0 UV-I 70 W/m 15,4 km/h (3 Bft)
29.06.2013 20:22 16,2 C 15,1 C 63 % 1022,4 hPa 0,0 l/m 0 min 0 min 0,0 UV-I 67 W/m 18,0 km/h (3 Bft)
29.06.2013 20:24 16,1 C 15,1 C 63 % 1022,4 hPa 0,0 l/m 0 min 0 min 0,0 UV-I 63 W/m 12,9 km/h (3 Bft)
29.06.2013 20:26 16,1 C 15,1 C 64 % 1022,4 hPa 0,0 l/m 0 min 0 min 0,0 UV-I 62 W/m 15,4 km/h (3 Bft)
29.06.2013 20:28 16,1 C 15,1 C 64 % 1022,4 hPa 0,0 l/m 0 min 0 min 0,0 UV-I 62 W/m 10,3 km/h (2 Bft)
29.06.2013 20:30 16,0 C 15,1 C 64 % 1022,5 hPa 0,0 l/m 0 min 0 min 0,0 UV-I 63 W/m 12,9 km/h (3 Bft)
29.06.2013 20:32 16,0 C 15,1 C 64 % 1022,5 hPa 0,0 l/m 0 min 0 min 0,0 UV-I 63 W/m 15,4 km/h (3 Bft)
29.06.2013 20:34 15,9 C 15,1 C 64 % 1022,5 hPa 0,0 l/m 0 min 0 min 0,0 UV-I 63 W/m 10,3 km/h (2 Bft)
29.06.2013 20:36 15,9 C 15,1 C 65 % 1022,6 hPa 0,0 l/m 0 min 0 min 0,0 UV-I 63 W/m 18,0 km/h (3 Bft)
29.06.2013 20:38 15,9 C 14,6 C 65 % 1022,6 hPa 0,0 l/m 0 min 0 min 0,0 UV-I 56 W/m 15,4 km/h (3 Bft)
29.06.2013 20:40 15,8 C 14,6 C 65 % 1022,6 hPa 0,0 l/m 0 min 0 min 0,0 UV-I 51 W/m 15,4 km/h (3 Bft)
29.06.2013 20:42 15,8 C 14,6 C 65 % 1022,6 hPa 0,0 l/m 0 min 0 min 0,0 UV-I 49 W/m 12,9 km/h (3 Bft)
29.06.2013 20:44 15,8 C 14,6 C 65 % 1022,6 hPa 0,0 l/m 0 min 0 min 0,0 UV-I 47 W/m 7,7 km/h (2 Bft)
29.06.2013 20:46 15,8 C 14,6 C 65 % 1022,7 hPa 0,0 l/m 0 min 0 min 0,0 UV-I 47 W/m 10,3 km/h (2 Bft)
29.06.2013 20:48 15,7 C 14,6 C 65 % 1022,7 hPa 0,0 l/m 0 min 0 min 0,0 UV-I 44 W/m 15,4 km/h (3 Bft)
29.06.2013 20:50 15,7 C 14,6 C 65 % 1022,8 hPa 0,0 l/m 0 min 0 min 0,0 UV-I 39 W/m 10,3 km/h (2 Bft)
29.06.2013 20:52 15,7 C 14,6 C 66 % 1022,8 hPa 0,0 l/m 0 min 0 min 0,0 UV-I 35 W/m 0,0 km/h (0 Bft)
29.06.2013 20:54 15,6 C 14,6 C 67 % 1022,8 hPa 0,0 l/m 0 min 0 min 0,0 UV-I 33 W/m 15,4 km/h (3 Bft)
29.06.2013 20:56 15,6 C 14,6 C 66 % 1022,8 hPa 0,0 l/m 0 min 0 min 0,0 UV-I 33 W/m 7,7 km/h (2 Bft)
29.06.2013 20:58 15,5 C 14,0 C 67 % 1022,9 hPa 0,0 l/m 0 min 0 min 0,0 UV-I 32 W/m 0,0 km/h (0 Bft)
29.06.2013 21:00 15,4 C 14,0 C 67 % 1022,9 hPa 0,0 l/m 0 min 0 min 0,0 UV-I 30 W/m 7,7 km/h (2 Bft)
29.06.2013 21:02 15,4 C 14,0 C 67 % 1022,9 hPa 0,0 l/m 0 min 0 min 0,0 UV-I 28 W/m 18,0 km/h (3 Bft)
29.06.2013 21:06 15,3 C 14,0 C 67 % 1022,9 hPa 0,0 l/m 0 min 0 min 0,0 UV-I 26 W/m 10,3 km/h (2 Bft)
29.06.2013 21:08 15,2 C 14,0 C 67 % 1022,9 hPa 0,0 l/m 0 min 0 min 0,0 UV-I 25 W/m 0,0 km/h (0 Bft)
29.06.2013 21:10 15,2 C 14,0 C 67 % 1022,9 hPa 0,0 l/m 0 min 0 min 0,0 UV-I 25 W/m 10,3 km/h (2 Bft)
29.06.2013 21:12 15,2 C 13,4 C 67 % 1022,9 hPa 0,0 l/m 0 min 0 min 0,0 UV-I 25 W/m 10,3 km/h (2 Bft)
29.06.2013 21:14 15,2 C 13,4 C 67 % 1022,9 hPa 0,0 l/m 0 min 0 min 0,0 UV-I 25 W/m 12,9 km/h (3 Bft)
29.06.2013 21:16 15,2 C 13,4 C 67 % 1022,9 hPa 0,0 l/m 0 min 0 min 0,0 UV-I 23 W/m 10,3 km/h (2 Bft)
29.06.2013 21:18 15,2 C 13,4 C 67 % 1023,0 hPa 0,0 l/m 0 min 0 min 0,0 UV-I 21 W/m 7,7 km/h (2 Bft)
29.06.2013 21:20 15,2 C 13,4 C 67 % 1023,0 hPa 0,0 l/m 0 min 0 min 0,0 UV-I 21 W/m 0,0 km/h (0 Bft)
29.06.2013 21:22 15,2 C 13,4 C 68 % 1023,0 hPa 0,0 l/m 0 min 0 min 0,0 UV-I 19 W/m 0,0 km/h (0 Bft)
29.06.2013 21:24 15,1 C 13,4 C 68 % 1022,9 hPa 0,0 l/m 0 min 0 min 0,0 UV-I 19 W/m 0,0 km/h (0 Bft)
29.06.2013 21:26 15,1 C 13,4 C 68 % 1022,9 hPa 0,0 l/m 0 min 0 min 0,0 UV-I 18 W/m 0,0 km/h (0 Bft)
29.06.2013 21:28 15,1 C 13,4 C 68 % 1022,9 hPa 0,0 l/m 0 min 0 min 0,0 UV-I 18 W/m 0,0 km/h (0 Bft)
29.06.2013 21:30 15,1 C 12,9 C 68 % 1023,0 hPa 0,0 l/m 0 min 0 min 0,0 UV-I 16 W/m 0,0 km/h (0 Bft)
29.06.2013 21:32 15,0 C 12,9 C 68 % 1023,0 hPa 0,0 l/m 0 min 0 min 0,0 UV-I 14 W/m 0,0 km/h (0 Bft)
29.06.2013 21:34 15,0 C 12,9 C 69 % 1023,0 hPa 0,0 l/m 0 min 0 min 0,0 UV-I 14 W/m 0,0 km/h (0 Bft)
29.06.2013 21:36 14,9 C 12,9 C 69 % 1023,0 hPa 0,0 l/m 0 min 0 min 0,0 UV-I 12 W/m 0,0 km/h (0 Bft)
29.06.2013 21:38 14,9 C 12,9 C 69 % 1023,1 hPa 0,0 l/m 0 min 0 min 0,0 UV-I 12 W/m 0,0 km/h (0 Bft)
29.06.2013 21:40 14,9 C 12,9 C 69 % 1023,2 hPa 0,0 l/m 0 min 0 min 0,0 UV-I 11 W/m 0,0 km/h (0 Bft)
29.06.2013 21:42 14,8 C 12,9 C 69 % 1023,2 hPa 0,0 l/m 0 min 0 min 0,0 UV-I 11 W/m 0,0 km/h (0 Bft)
29.06.2013 21:44 14,8 C 12,3 C 70 % 1023,2 hPa 0,0 l/m 0 min 0 min 0,0 UV-I 9 W/m 0,0 km/h (0 Bft)
29.06.2013 21:46 14,8 C 12,3 C 70 % 1023,2 hPa 0,0 l/m 0 min 0 min 0,0 UV-I 9 W/m 0,0 km/h (0 Bft)
29.06.2013 21:48 14,7 C 12,3 C 70 % 1023,2 hPa 0,0 l/m 0 min 0 min 0,0 UV-I 7 W/m 0,0 km/h (0 Bft)
29.06.2013 21:50 14,7 C 12,3 C 70 % 1023,3 hPa 0,0 l/m 0 min 0 min 0,0 UV-I 7 W/m 0,0 km/h (0 Bft)
29.06.2013 21:52 14,7 C 12,3 C 70 % 1023,3 hPa 0,0 l/m 0 min 0 min 0,0 UV-I 5 W/m 0,0 km/h (0 Bft)
29.06.2013 21:54 14,6 C 12,3 C 70 % 1023,3 hPa 0,0 l/m 0 min 0 min 0,0 UV-I 5 W/m 0,0 km/h (0 Bft)
29.06.2013 21:56 14,6 C 11,8 C 71 % 1023,4 hPa 0,0 l/m 0 min 0 min 0,0 UV-I 5 W/m 0,0 km/h (0 Bft)
29.06.2013 21:58 14,5 C 11,8 C 71 % 1023,4 hPa 0,0 l/m 0 min 0 min 0,0 UV-I 5 W/m 0,0 km/h (0 Bft)
29.06.2013 22:00 14,4 C 11,8 C 71 % 1023,5 hPa 0,0 l/m 0 min 0 min 0,0 UV-I 0 W/m 0,0 km/h (0 Bft)
29.06.2013 22:02 14,4 C 11,8 C 71 % 1023,5 hPa 0,0 l/m 0 min 0 min 0,0 UV-I 0 W/m 7,7 km/h (2 Bft)
29.06.2013 22:06 14,3 C 11,8 C 71 % 1023,5 hPa 0,0 l/m 0 min 0 min 0,0 UV-I 0 W/m 0,0 km/h (0 Bft)
29.06.2013 22:08 14,3 C 11,8 C 71 % 1023,6 hPa 0,0 l/m 0 min 0 min 0,0 UV-I 0 W/m 0,0 km/h (0 Bft)
29.06.2013 22:10 14,2 C 11,8 C 72 % 1023,6 hPa 0,0 l/m 0 min 0 min 0,0 UV-I 0 W/m 0,0 km/h (0 Bft)
29.06.2013 22:12 14,2 C 11,8 C 72 % 1023,6 hPa 0,0 l/m 0 min 0 min 0,0 UV-I 0 W/m 0,0 km/h (0 Bft)
29.06.2013 22:14 14,1 C 11,8 C 72 % 1023,7 hPa 0,0 l/m 0 min 0 min 0,0 UV-I 0 W/m 0,0 km/h (0 Bft)
29.06.2013 22:16 14,1 C 11,8 C 72 % 1023,7 hPa 0,0 l/m 0 min 0 min 0,0 UV-I 0 W/m 0,0 km/h (0 Bft)
29.06.2013 22:18 14,0 C 11,8 C 72 % 1023,7 hPa 0,0 l/m 0 min 0 min 0,0 UV-I 0 W/m 0,0 km/h (0 Bft)
29.06.2013 22:20 14,0 C 11,2 C 72 % 1023,7 hPa 0,0 l/m 0 min 0 min 0,0 UV-I 0 W/m 0,0 km/h (0 Bft)
29.06.2013 22:22 14,0 C 11,2 C 72 % 1023,8 hPa 0,0 l/m 0 min 0 min 0,0 UV-I 0 W/m 0,0 km/h (0 Bft)
29.06.2013 22:24 14,0 C 11,2 C 73 % 1023,8 hPa 0,0 l/m 0 min 0 min 0,0 UV-I 0 W/m 0,0 km/h (0 Bft)
29.06.2013 22:26 13,9 C 11,2 C 73 % 1023,7 hPa 0,0 l/m 0 min 0 min 0,0 UV-I 0 W/m 0,0 km/h (0 Bft)
29.06.2013 22:28 13,9 C 11,2 C 73 % 1023,8 hPa 0,0 l/m 0 min 0 min 0,0 UV-I 0 W/m 0,0 km/h (0 Bft)
29.06.2013 22:30 13,8 C 11,2 C 74 % 1023,8 hPa 0,0 l/m 0 min 0 min 0,0 UV-I 0 W/m 0,0 km/h (0 Bft)
29.06.2013 22:32 13,8 C 11,2 C 74 % 1023,8 hPa 0,0 l/m 0 min 0 min 0,0 UV-I 0 W/m 0,0 km/h (0 Bft)
29.06.2013 22:34 13,7 C 10,7 C 74 % 1023,8 hPa 0,0 l/m 0 min 0 min 0,0 UV-I 0 W/m 0,0 km/h (0 Bft)
29.06.2013 22:36 13,7 C 10,7 C 74 % 1023,8 hPa 0,0 l/m 0 min 0 min 0,0 UV-I 0 W/m 0,0 km/h (0 Bft)
29.06.2013 22:38 13,6 C 10,7 C 74 % 1023,8 hPa 0,0 l/m 0 min 0 min 0,0 UV-I 0 W/m 0,0 km/h (0 Bft)
29.06.2013 22:40 13,6 C 10,7 C 75 % 1023,9 hPa 0,0 l/m 0 min 0 min 0,0 UV-I 0 W/m 0,0 km/h (0 Bft)
29.06.2013 22:42 13,5 C 10,7 C 75 % 1023,9 hPa 0,0 l/m 0 min 0 min 0,0 UV-I 0 W/m 0,0 km/h (0 Bft)
29.06.2013 22:44 13,4 C 10,7 C 75 % 1023,9 hPa 0,0 l/m 0 min 0 min 0,0 UV-I 0 W/m 0,0 km/h (0 Bft)
29.06.2013 22:46 13,4 C 10,7 C 75 % 1023,9 hPa 0,0 l/m 0 min 0 min 0,0 UV-I 0 W/m 0,0 km/h (0 Bft)
29.06.2013 22:48 13,3 C 10,7 C 75 % 1023,9 hPa 0,0 l/m 0 min 0 min 0,0 UV-I 0 W/m 0,0 km/h (0 Bft)
29.06.2013 22:50 13,3 C 10,7 C 76 % 1023,9 hPa 0,0 l/m 0 min 0 min 0,0 UV-I 0 W/m 0,0 km/h (0 Bft)
29.06.2013 22:52 13,2 C 10,7 C 76 % 1023,9 hPa 0,0 l/m 0 min 0 min 0,0 UV-I 0 W/m 0,0 km/h (0 Bft)
29.06.2013 22:54 13,2 C 10,7 C 76 % 1024,0 hPa 0,0 l/m 0 min 0 min 0,0 UV-I 0 W/m 0,0 km/h (0 Bft)
29.06.2013 22:56 13,2 C 10,1 C 76 % 1024,0 hPa 0,0 l/m 0 min 0 min 0,0 UV-I 0 W/m 0,0 km/h (0 Bft)
29.06.2013 22:58 13,1 C 10,1 C 76 % 1023,9 hPa 0,0 l/m 0 min 0 min 0,0 UV-I 0 W/m 0,0 km/h (0 Bft)
29.06.2013 23:00 13,1 C 10,1 C 77 % 1023,9 hPa 0,0 l/m 0 min 0 min 0,0 UV-I 0 W/m 0,0 km/h (0 Bft)
29.06.2013 23:02 13,0 C 10,1 C 77 % 1023,9 hPa 0,0 l/m 0 min 0 min 0,0 UV-I 0 W/m 0,0 km/h (0 Bft)
29.06.2013 23:06 12,9 C 10,1 C 77 % 1023,9 hPa 0,0 l/m 0 min 0 min 0,0 UV-I 0 W/m 0,0 km/h (0 Bft)
29.06.2013 23:08 12,8 C 9,6 C 78 % 1024,0 hPa 0,0 l/m 0 min 0 min 0,0 UV-I 0 W/m 0,0 km/h (0 Bft)
29.06.2013 23:10 12,8 C 9,6 C 78 % 1023,9 hPa 0,0 l/m 0 min 0 min 0,0 UV-I 0 W/m 0,0 km/h (0 Bft)
29.06.2013 23:12 12,7 C 9,6 C 78 % 1024,0 hPa 0,0 l/m 0 min 0 min 0,0 UV-I 0 W/m 0,0 km/h (0 Bft)
29.06.2013 23:14 12,7 C 9,6 C 78 % 1024,0 hPa 0,0 l/m 0 min 0 min 0,0 UV-I 0 W/m 0,0 km/h (0 Bft)
29.06.2013 23:16 12,6 C 9,6 C 79 % 1024,1 hPa 0,0 l/m 0 min 0 min 0,0 UV-I 0 W/m 0,0 km/h (0 Bft)
29.06.2013 23:18 12,6 C 9,6 C 79 % 1024,1 hPa 0,0 l/m 0 min 0 min 0,0 UV-I 0 W/m 0,0 km/h (0 Bft)
29.06.2013 23:20 12,5 C 9,6 C 79 % 1024,1 hPa 0,0 l/m 0 min 0 min 0,0 UV-I 0 W/m 0,0 km/h (0 Bft)
29.06.2013 23:22 12,4 C 9,6 C 79 % 1024,1 hPa 0,0 l/m 0 min 0 min 0,0 UV-I 0 W/m 0,0 km/h (0 Bft)
29.06.2013 23:24 12,4 C 9,6 C 80 % 1024,2 hPa 0,0 l/m 0 min 0 min 0,0 UV-I 0 W/m 0,0 km/h (0 Bft)
29.06.2013 23:26 12,3 C 9,6 C 80 % 1024,2 hPa 0,0 l/m 0 min 0 min 0,0 UV-I 0 W/m 0,0 km/h (0 Bft)
29.06.2013 23:28 12,3 C 9,6 C 80 % 1024,2 hPa 0,0 l/m 0 min 0 min 0,0 UV-I 0 W/m 0,0 km/h (0 Bft)
29.06.2013 23:30 12,2 C 9,6 C 80 % 1024,2 hPa 0,0 l/m 0 min 0 min 0,0 UV-I 0 W/m 0,0 km/h (0 Bft)
29.06.2013 23:32 12,2 C 9,0 C 80 % 1024,3 hPa 0,0 l/m 0 min 0 min 0,0 UV-I 0 W/m 0,0 km/h (0 Bft)
29.06.2013 23:34 12,1 C 9,0 C 81 % 1024,3 hPa 0,0 l/m 0 min 0 min 0,0 UV-I 0 W/m 0,0 km/h (0 Bft)
29.06.2013 23:36 12,1 C 9,0 C 81 % 1024,3 hPa 0,0 l/m 0 min 0 min 0,0 UV-I 0 W/m 0,0 km/h (0 Bft)
29.06.2013 23:38 12,0 C 9,0 C 81 % 1024,3 hPa 0,0 l/m 0 min 0 min 0,0 UV-I 0 W/m 0,0 km/h (0 Bft)
29.06.2013 23:40 11,9 C 9,0 C 81 % 1024,3 hPa 0,0 l/m 0 min 0 min 0,0 UV-I 0 W/m 0,0 km/h (0 Bft)
29.06.2013 23:42 11,9 C 9,0 C 81 % 1024,3 hPa 0,0 l/m 0 min 0 min 0,0 UV-I 0 W/m 0,0 km/h (0 Bft)
29.06.2013 23:44 11,8 C 9,0 C 82 % 1024,3 hPa 0,0 l/m 0 min 0 min 0,0 UV-I 0 W/m 0,0 km/h (0 Bft)
29.06.2013 23:46 11,8 C 9,0 C 82 % 1024,2 hPa 0,0 l/m 0 min 0 min 0,0 UV-I 0 W/m 0,0 km/h (0 Bft)
29.06.2013 23:48 11,7 C 9,0 C 82 % 1024,3 hPa 0,0 l/m 0 min 0 min 0,0 UV-I 0 W/m 0,0 km/h (0 Bft)
29.06.2013 23:50 11,7 C 9,0 C 82 % 1024,3 hPa 0,0 l/m 0 min 0 min 0,0 UV-I 0 W/m 0,0 km/h (0 Bft)
29.06.2013 23:52 11,7 C 9,0 C 82 % 1024,3 hPa 0,0 l/m 0 min 0 min 0,0 UV-I 0 W/m 0,0 km/h (0 Bft)
29.06.2013 23:54 11,6 C 9,0 C 82 % 1024,3 hPa 0,0 l/m 0 min 0 min 0,0 UV-I 0 W/m 0,0 km/h (0 Bft)
29.06.2013 23:56 11,6 C 9,0 C 83 % 1024,3 hPa 0,0 l/m 0 min 0 min 0,0 UV-I 0 W/m 0,0 km/h (0 Bft)
29.06.2013 23:58 11,5 C 9,0 C 83 % 1024,3 hPa 0,0 l/m 0 min 0 min 0,0 UV-I 0 W/m 0,0 km/h (0 Bft)
_ Min-Zeit 23:58 23:32 16:58 04:52 - - - - - 00:02
Minimum _ 11,5 C 9,0 C 55 % 1013,0 hPa - - - - - 0,0 km/h (0 Bft)
_ Max-Zeit 16:54 13:18 09:00 23:32 00:05 09:36 00:00 14:17 13:56 14:14
Maximum _ 20,6 C 22,9 C 100 % 1024,3 hPa 0,2 l/m 2 min 2 min 5,7 UV-I 1146 W/m 41,2 km/h
N-NW (6 Bft)
Durchschnitt _ 15,6 C 14,8 C 82 % 1018,1 hPa #5,8 l/m #4:43 h #5:34 h 2,6 UV-I 298 W/m 11,5 km/h (2 Bft)
© 2013 W. Hausmann